<?xml version="1.0" encoding="UTF-8" standalone="no" ?>
<gpx xmlns="http://www.topografix.com/GPX/1/1" xmlns:xsi="http://www.w3.org/2001/XMLSchema-instance" xsi:schemaLocation="http://www.topografix.com/GPX/1/1 http://www.topografix.com/GPX/1/1/gpx.xsd" version="1.1" creator="VisuGPX - https://www.visugpx.com">
  <metadata>
    <name>moulin a eau froyennes 53</name>
  </metadata>
  <trk>
    <name><![CDATA[moulin a eau froyennes 53]]></name>
    <trkseg>
      <trkpt lat="50.50361" lon="3.46454">
        <ele>20.89163</ele>
        <time>2020-09-17T09:21:13.956Z</time>
      </trkpt>
      <trkpt lat="50.50361" lon="3.46454">
        <ele>20.89163</ele>
        <time>2020-09-17T09:21:13.961Z</time>
      </trkpt>
      <trkpt lat="50.5034" lon="3.46438">
        <ele>20.89163</ele>
        <time>2020-09-17T09:21:17.516Z</time>
      </trkpt>
      <trkpt lat="50.50316" lon="3.46422">
        <ele>20.89163</ele>
        <time>2020-09-17T09:21:21.490Z</time>
      </trkpt>
      <trkpt lat="50.50313" lon="3.46411">
        <ele>20.89163</ele>
        <time>2020-09-17T09:21:22.568Z</time>
      </trkpt>
      <trkpt lat="50.50317" lon="3.46374">
        <ele>20.89163</ele>
        <time>2020-09-17T09:21:26.076Z</time>
      </trkpt>
      <trkpt lat="50.50325" lon="3.46304">
        <ele>20.800165</ele>
        <time>2020-09-17T09:21:32.497Z</time>
      </trkpt>
      <trkpt lat="50.50335" lon="3.46236">
        <ele>20.687575</ele>
        <time>2020-09-17T09:21:38.781Z</time>
      </trkpt>
      <trkpt lat="50.50345" lon="3.46155">
        <ele>20.555786</ele>
        <time>2020-09-17T09:21:46.158Z</time>
      </trkpt>
      <trkpt lat="50.50361" lon="3.46074">
        <ele>20.406292</ele>
        <time>2020-09-17T09:21:53.431Z</time>
      </trkpt>
      <trkpt lat="50.5041" lon="3.45851">
        <ele>19.732277</ele>
        <time>2020-09-17T09:22:13.479Z</time>
      </trkpt>
      <trkpt lat="50.50424" lon="3.45772">
        <ele>19.47798</ele>
        <time>2020-09-17T09:22:20.538Z</time>
      </trkpt>
      <trkpt lat="50.50433" lon="3.4572">
        <ele>19.299184</ele>
        <time>2020-09-17T09:22:25.231Z</time>
      </trkpt>
      <trkpt lat="50.50436" lon="3.45642">
        <ele>19.043418</ele>
        <time>2020-09-17T09:22:31.947Z</time>
      </trkpt>
      <trkpt lat="50.50437" lon="3.45631">
        <ele>19.00705</ele>
        <time>2020-09-17T09:22:32.761Z</time>
      </trkpt>
      <trkpt lat="50.5044" lon="3.45588">
        <ele>18.863243</ele>
        <time>2020-09-17T09:22:36.870Z</time>
      </trkpt>
      <trkpt lat="50.50441" lon="3.45573">
        <ele>18.812578</ele>
        <time>2020-09-17T09:22:38.022Z</time>
      </trkpt>
      <trkpt lat="50.50441" lon="3.45568">
        <ele>18.795651</ele>
        <time>2020-09-17T09:22:38.465Z</time>
      </trkpt>
      <trkpt lat="50.50443" lon="3.45552">
        <ele>18.741803</ele>
        <time>2020-09-17T09:22:39.820Z</time>
      </trkpt>
      <trkpt lat="50.50448" lon="3.45508">
        <ele>18.51688</ele>
        <time>2020-09-17T09:22:43.247Z</time>
      </trkpt>
      <trkpt lat="50.50447" lon="3.4549">
        <ele>18.408546</ele>
        <time>2020-09-17T09:22:44.682Z</time>
      </trkpt>
      <trkpt lat="50.50444" lon="3.45482">
        <ele>18.353253</ele>
        <time>2020-09-17T09:22:45.491Z</time>
      </trkpt>
      <trkpt lat="50.50448" lon="3.4547">
        <ele>18.274353</ele>
        <time>2020-09-17T09:22:46.473Z</time>
      </trkpt>
      <trkpt lat="50.50458" lon="3.45443">
        <ele>18.090423</ele>
        <time>2020-09-17T09:22:48.923Z</time>
      </trkpt>
      <trkpt lat="50.50468" lon="3.45372">
        <ele>17.666076</ele>
        <time>2020-09-17T09:22:54.611Z</time>
      </trkpt>
      <trkpt lat="50.50471" lon="3.45343">
        <ele>17.493604</ele>
        <time>2020-09-17T09:22:56.975Z</time>
      </trkpt>
      <trkpt lat="50.50473" lon="3.45332">
        <ele>17.431277</ele>
        <time>2020-09-17T09:22:57.779Z</time>
      </trkpt>
      <trkpt lat="50.50477" lon="3.45312">
        <ele>17.305308</ele>
        <time>2020-09-17T09:22:59.539Z</time>
      </trkpt>
      <trkpt lat="50.50513" lon="3.45201">
        <ele>16.742336</ele>
        <time>2020-09-17T09:23:09.457Z</time>
      </trkpt>
      <trkpt lat="50.50531" lon="3.45152">
        <ele>16.526197</ele>
        <time>2020-09-17T09:23:14.026Z</time>
      </trkpt>
      <trkpt lat="50.50539" lon="3.45133">
        <ele>16.437831</ele>
        <time>2020-09-17T09:23:15.836Z</time>
      </trkpt>
      <trkpt lat="50.50551" lon="3.45111">
        <ele>16.328842</ele>
        <time>2020-09-17T09:23:18.274Z</time>
      </trkpt>
      <trkpt lat="50.50599" lon="3.45026">
        <ele>15.951966</ele>
        <time>2020-09-17T09:23:28.247Z</time>
      </trkpt>
      <trkpt lat="50.50652" lon="3.44916">
        <ele>15.832076</ele>
        <time>2020-09-17T09:23:41.073Z</time>
      </trkpt>
      <trkpt lat="50.50661" lon="3.44894">
        <ele>15.809681</ele>
        <time>2020-09-17T09:23:43.336Z</time>
      </trkpt>
      <trkpt lat="50.50673" lon="3.44871">
        <ele>15.783437</ele>
        <time>2020-09-17T09:23:46.232Z</time>
      </trkpt>
      <trkpt lat="50.50707" lon="3.44823">
        <ele>15.722719</ele>
        <time>2020-09-17T09:23:52.701Z</time>
      </trkpt>
      <trkpt lat="50.51095" lon="3.44486">
        <ele>15.526615</ele>
        <time>2020-09-17T09:24:57.145Z</time>
      </trkpt>
      <trkpt lat="50.51116" lon="3.44468">
        <ele>15.5463</ele>
        <time>2020-09-17T09:25:00.958Z</time>
      </trkpt>
      <trkpt lat="50.51187" lon="3.44406">
        <ele>15.643524</ele>
        <time>2020-09-17T09:25:13.595Z</time>
      </trkpt>
      <trkpt lat="50.5119" lon="3.44403">
        <ele>15.660484</ele>
        <time>2020-09-17T09:25:14.389Z</time>
      </trkpt>
      <trkpt lat="50.51322" lon="3.4435">
        <ele>16.189209</ele>
        <time>2020-09-17T09:25:36.783Z</time>
      </trkpt>
      <trkpt lat="50.5134" lon="3.44349">
        <ele>16.261892</ele>
        <time>2020-09-17T09:25:39.979Z</time>
      </trkpt>
      <trkpt lat="50.51346" lon="3.4435">
        <ele>16.284212</ele>
        <time>2020-09-17T09:25:40.925Z</time>
      </trkpt>
      <trkpt lat="50.5139" lon="3.44363">
        <ele>16.37552</ele>
        <time>2020-09-17T09:25:48.212Z</time>
      </trkpt>
      <trkpt lat="50.51573" lon="3.44428">
        <ele>16.484705</ele>
        <time>2020-09-17T09:26:17.059Z</time>
      </trkpt>
      <trkpt lat="50.51599" lon="3.44445">
        <ele>16.401339</ele>
        <time>2020-09-17T09:26:20.842Z</time>
      </trkpt>
      <trkpt lat="50.51714" lon="3.44519">
        <ele>16.044181</ele>
        <time>2020-09-17T09:26:37.318Z</time>
      </trkpt>
      <trkpt lat="50.51727" lon="3.44527">
        <ele>16.012443</ele>
        <time>2020-09-17T09:26:39.059Z</time>
      </trkpt>
      <trkpt lat="50.51818" lon="3.44585">
        <ele>15.781365</ele>
        <time>2020-09-17T09:26:52.479Z</time>
      </trkpt>
      <trkpt lat="50.51845" lon="3.44602">
        <ele>15.714171</ele>
        <time>2020-09-17T09:26:56.803Z</time>
      </trkpt>
      <trkpt lat="50.5192" lon="3.44671">
        <ele>15.939809</ele>
        <time>2020-09-17T09:27:10.582Z</time>
      </trkpt>
      <trkpt lat="50.51925" lon="3.44675">
        <ele>15.96304</ele>
        <time>2020-09-17T09:27:11.594Z</time>
      </trkpt>
      <trkpt lat="50.51933" lon="3.44684">
        <ele>16.003982</ele>
        <time>2020-09-17T09:27:13.588Z</time>
      </trkpt>
      <trkpt lat="50.51953" lon="3.44702">
        <ele>16.094233</ele>
        <time>2020-09-17T09:27:17.133Z</time>
      </trkpt>
      <trkpt lat="50.51991" lon="3.44724">
        <ele>16.258314</ele>
        <time>2020-09-17T09:27:24.075Z</time>
      </trkpt>
      <trkpt lat="50.52029" lon="3.44725">
        <ele>16.401594</ele>
        <time>2020-09-17T09:27:30.494Z</time>
      </trkpt>
      <trkpt lat="50.52034" lon="3.44722">
        <ele>16.412404</ele>
        <time>2020-09-17T09:27:31.537Z</time>
      </trkpt>
      <trkpt lat="50.52072" lon="3.44707">
        <ele>16.498262</ele>
        <time>2020-09-17T09:27:38.141Z</time>
      </trkpt>
      <trkpt lat="50.52089" lon="3.44693">
        <ele>16.541449</ele>
        <time>2020-09-17T09:27:41.191Z</time>
      </trkpt>
      <trkpt lat="50.52092" lon="3.44691">
        <ele>16.54729</ele>
        <time>2020-09-17T09:27:41.609Z</time>
      </trkpt>
      <trkpt lat="50.52105" lon="3.44679">
        <ele>16.580322</ele>
        <time>2020-09-17T09:27:44.085Z</time>
      </trkpt>
      <trkpt lat="50.52116" lon="3.44669">
        <ele>16.609454</ele>
        <time>2020-09-17T09:27:46.116Z</time>
      </trkpt>
      <trkpt lat="50.52143" lon="3.44666">
        <ele>16.667739</ele>
        <time>2020-09-17T09:27:50.289Z</time>
      </trkpt>
      <trkpt lat="50.52154" lon="3.44675">
        <ele>16.695627</ele>
        <time>2020-09-17T09:27:52.153Z</time>
      </trkpt>
      <trkpt lat="50.52189" lon="3.44712">
        <ele>16.784141</ele>
        <time>2020-09-17T09:27:58.325Z</time>
      </trkpt>
      <trkpt lat="50.52222" lon="3.44745">
        <ele>16.746683</ele>
        <time>2020-09-17T09:28:03.911Z</time>
      </trkpt>
      <trkpt lat="50.52251" lon="3.448">
        <ele>16.703522</ele>
        <time>2020-09-17T09:28:10.423Z</time>
      </trkpt>
      <trkpt lat="50.52281" lon="3.44844">
        <ele>16.664286</ele>
        <time>2020-09-17T09:28:16.331Z</time>
      </trkpt>
      <trkpt lat="50.52311" lon="3.44887">
        <ele>16.626168</ele>
        <time>2020-09-17T09:28:22.172Z</time>
      </trkpt>
      <trkpt lat="50.52348" lon="3.44962">
        <ele>16.683959</ele>
        <time>2020-09-17T09:28:31.227Z</time>
      </trkpt>
      <trkpt lat="50.52354" lon="3.44967">
        <ele>16.694534</ele>
        <time>2020-09-17T09:28:32.309Z</time>
      </trkpt>
      <trkpt lat="50.52364" lon="3.44971">
        <ele>16.709172</ele>
        <time>2020-09-17T09:28:33.881Z</time>
      </trkpt>
      <trkpt lat="50.52397" lon="3.4497">
        <ele>16.757184</ele>
        <time>2020-09-17T09:28:39.120Z</time>
      </trkpt>
      <trkpt lat="50.52465" lon="3.44966">
        <ele>16.85558</ele>
        <time>2020-09-17T09:28:49.732Z</time>
      </trkpt>
      <trkpt lat="50.52496" lon="3.44968">
        <ele>16.902481</ele>
        <time>2020-09-17T09:28:54.641Z</time>
      </trkpt>
      <trkpt lat="50.52556" lon="3.44992">
        <ele>16.996637</ele>
        <time>2020-09-17T09:29:04.240Z</time>
      </trkpt>
      <trkpt lat="50.52569" lon="3.45007">
        <ele>17.022113</ele>
        <time>2020-09-17T09:29:06.632Z</time>
      </trkpt>
      <trkpt lat="50.52594" lon="3.45088">
        <ele>17.109282</ele>
        <time>2020-09-17T09:29:15.331Z</time>
      </trkpt>
      <trkpt lat="50.52608" lon="3.45115">
        <ele>17.14254</ele>
        <time>2020-09-17T09:29:18.564Z</time>
      </trkpt>
      <trkpt lat="50.52695" lon="3.45217">
        <ele>17.697916</ele>
        <time>2020-09-17T09:29:36.074Z</time>
      </trkpt>
      <trkpt lat="50.52698" lon="3.45225">
        <ele>17.731869</ele>
        <time>2020-09-17T09:29:37.242Z</time>
      </trkpt>
      <trkpt lat="50.52707" lon="3.45261">
        <ele>17.861277</ele>
        <time>2020-09-17T09:29:41.497Z</time>
      </trkpt>
      <trkpt lat="50.52719" lon="3.45338">
        <ele>18.141662</ele>
        <time>2020-09-17T09:29:50.681Z</time>
      </trkpt>
      <trkpt lat="50.52726" lon="3.45386">
        <ele>18.414079</ele>
        <time>2020-09-17T09:29:56.529Z</time>
      </trkpt>
      <trkpt lat="50.52741" lon="3.45438">
        <ele>18.729656</ele>
        <time>2020-09-17T09:30:03.449Z</time>
      </trkpt>
      <trkpt lat="50.52758" lon="3.45546">
        <ele>19.342503</ele>
        <time>2020-09-17T09:30:16.629Z</time>
      </trkpt>
      <trkpt lat="50.52769" lon="3.45601">
        <ele>19.658218</ele>
        <time>2020-09-17T09:30:23.158Z</time>
      </trkpt>
      <trkpt lat="50.52802" lon="3.4571">
        <ele>20.193273</ele>
        <time>2020-09-17T09:30:36.707Z</time>
      </trkpt>
      <trkpt lat="50.52899" lon="3.46191">
        <ele>22.644665</ele>
        <time>2020-09-17T09:31:32.938Z</time>
      </trkpt>
      <trkpt lat="50.52939" lon="3.46351">
        <ele>23.966791</ele>
        <time>2020-09-17T09:31:55.291Z</time>
      </trkpt>
      <trkpt lat="50.52951" lon="3.46484">
        <ele>25.072505</ele>
        <time>2020-09-17T09:32:12.925Z</time>
      </trkpt>
      <trkpt lat="50.53003" lon="3.46805">
        <ele>27.604872</ele>
        <time>2020-09-17T09:32:55.393Z</time>
      </trkpt>
      <trkpt lat="50.53008" lon="3.46817">
        <ele>27.691676</ele>
        <time>2020-09-17T09:32:57.099Z</time>
      </trkpt>
      <trkpt lat="50.53012" lon="3.46822">
        <ele>27.737643</ele>
        <time>2020-09-17T09:32:58.057Z</time>
      </trkpt>
      <trkpt lat="50.53018" lon="3.46828">
        <ele>27.812571</ele>
        <time>2020-09-17T09:32:59.542Z</time>
      </trkpt>
      <trkpt lat="50.53025" lon="3.46829">
        <ele>27.879267</ele>
        <time>2020-09-17T09:33:01.306Z</time>
      </trkpt>
      <trkpt lat="50.53175" lon="3.46773">
        <ele>27.957307</ele>
        <time>2020-09-17T09:33:26.293Z</time>
      </trkpt>
      <trkpt lat="50.53195" lon="3.46763">
        <ele>27.813923</ele>
        <time>2020-09-17T09:33:29.194Z</time>
      </trkpt>
      <trkpt lat="50.532" lon="3.46759">
        <ele>27.776369</ele>
        <time>2020-09-17T09:33:29.699Z</time>
      </trkpt>
      <trkpt lat="50.53267" lon="3.46704">
        <ele>27.205423</ele>
        <time>2020-09-17T09:33:38.191Z</time>
      </trkpt>
      <trkpt lat="50.53356" lon="3.46634">
        <ele>25.856618</ele>
        <time>2020-09-17T09:33:49.268Z</time>
      </trkpt>
      <trkpt lat="50.5341" lon="3.46593">
        <ele>25.047422</ele>
        <time>2020-09-17T09:33:56.582Z</time>
      </trkpt>
      <trkpt lat="50.53601" lon="3.4645">
        <ele>24.357476</ele>
        <time>2020-09-17T09:34:28.015Z</time>
      </trkpt>
      <trkpt lat="50.53712" lon="3.46368">
        <ele>23.094549</ele>
        <time>2020-09-17T09:34:42.942Z</time>
      </trkpt>
      <trkpt lat="50.53812" lon="3.46292">
        <ele>21.729872</ele>
        <time>2020-09-17T09:34:55.463Z</time>
      </trkpt>
      <trkpt lat="50.53844" lon="3.46263">
        <ele>21.248057</ele>
        <time>2020-09-17T09:34:59.667Z</time>
      </trkpt>
      <trkpt lat="50.53856" lon="3.46244">
        <ele>21.017892</ele>
        <time>2020-09-17T09:35:01.750Z</time>
      </trkpt>
      <trkpt lat="50.53878" lon="3.46181">
        <ele>20.42161</ele>
        <time>2020-09-17T09:35:07.217Z</time>
      </trkpt>
      <trkpt lat="50.5388" lon="3.46164">
        <ele>20.305625</ele>
        <time>2020-09-17T09:35:08.556Z</time>
      </trkpt>
      <trkpt lat="50.53949" lon="3.45679">
        <ele>19.380449</ele>
        <time>2020-09-17T09:35:53.138Z</time>
      </trkpt>
      <trkpt lat="50.54021" lon="3.45177">
        <ele>18.5258</ele>
        <time>2020-09-17T09:36:38.592Z</time>
      </trkpt>
      <trkpt lat="50.5404" lon="3.45071">
        <ele>18.350185</ele>
        <time>2020-09-17T09:36:48.251Z</time>
      </trkpt>
      <trkpt lat="50.54079" lon="3.44862">
        <ele>17.901321</ele>
        <time>2020-09-17T09:37:08.459Z</time>
      </trkpt>
      <trkpt lat="50.54083" lon="3.44841">
        <ele>17.855863</ele>
        <time>2020-09-17T09:37:10.180Z</time>
      </trkpt>
      <trkpt lat="50.54086" lon="3.44827">
        <ele>17.824543</ele>
        <time>2020-09-17T09:37:11.378Z</time>
      </trkpt>
      <trkpt lat="50.54086" lon="3.44823">
        <ele>17.816427</ele>
        <time>2020-09-17T09:37:11.866Z</time>
      </trkpt>
      <trkpt lat="50.5411" lon="3.4468">
        <ele>17.290942</ele>
        <time>2020-09-17T09:37:23.354Z</time>
      </trkpt>
      <trkpt lat="50.54123" lon="3.44691">
        <ele>17.199492</ele>
        <time>2020-09-17T09:37:25.315Z</time>
      </trkpt>
      <trkpt lat="50.54138" lon="3.44698">
        <ele>17.105045</ele>
        <time>2020-09-17T09:37:27.305Z</time>
      </trkpt>
      <trkpt lat="50.54141" lon="3.447">
        <ele>17.084569</ele>
        <time>2020-09-17T09:37:27.669Z</time>
      </trkpt>
      <trkpt lat="50.5416" lon="3.44707">
        <ele>16.962813</ele>
        <time>2020-09-17T09:37:30.529Z</time>
      </trkpt>
      <trkpt lat="50.5417" lon="3.44711">
        <ele>16.901482</ele>
        <time>2020-09-17T09:37:31.879Z</time>
      </trkpt>
      <trkpt lat="50.54179" lon="3.44715">
        <ele>16.842651</ele>
        <time>2020-09-17T09:37:33.103Z</time>
      </trkpt>
      <trkpt lat="50.54192" lon="3.4472">
        <ele>16.759349</ele>
        <time>2020-09-17T09:37:35.023Z</time>
      </trkpt>
      <trkpt lat="50.54222" lon="3.44731">
        <ele>16.668991</ele>
        <time>2020-09-17T09:37:39.240Z</time>
      </trkpt>
      <trkpt lat="50.54249" lon="3.44741">
        <ele>16.733196</ele>
        <time>2020-09-17T09:37:42.976Z</time>
      </trkpt>
      <trkpt lat="50.54262" lon="3.44741">
        <ele>16.763442</ele>
        <time>2020-09-17T09:37:44.804Z</time>
      </trkpt>
      <trkpt lat="50.5428" lon="3.44728">
        <ele>16.810258</ele>
        <time>2020-09-17T09:37:47.458Z</time>
      </trkpt>
      <trkpt lat="50.54288" lon="3.44721">
        <ele>16.831513</ele>
        <time>2020-09-17T09:37:49.061Z</time>
      </trkpt>
      <trkpt lat="50.54333" lon="3.44658">
        <ele>16.970704</ele>
        <time>2020-09-17T09:37:59.783Z</time>
      </trkpt>
      <trkpt lat="50.54389" lon="3.44586">
        <ele>17.02195</ele>
        <time>2020-09-17T09:38:12.420Z</time>
      </trkpt>
      <trkpt lat="50.54403" lon="3.4458">
        <ele>17.00669</ele>
        <time>2020-09-17T09:38:14.718Z</time>
      </trkpt>
      <trkpt lat="50.54414" lon="3.4458">
        <ele>16.994925</ele>
        <time>2020-09-17T09:38:16.261Z</time>
      </trkpt>
      <trkpt lat="50.54423" lon="3.4458">
        <ele>16.985332</ele>
        <time>2020-09-17T09:38:17.505Z</time>
      </trkpt>
      <trkpt lat="50.54433" lon="3.44583">
        <ele>16.974334</ele>
        <time>2020-09-17T09:38:18.918Z</time>
      </trkpt>
      <trkpt lat="50.54444" lon="3.44586">
        <ele>16.961094</ele>
        <time>2020-09-17T09:38:20.652Z</time>
      </trkpt>
      <trkpt lat="50.54473" lon="3.44524">
        <ele>16.907926</ele>
        <time>2020-09-17T09:38:29.871Z</time>
      </trkpt>
      <trkpt lat="50.54483" lon="3.44498">
        <ele>16.886601</ele>
        <time>2020-09-17T09:38:33.552Z</time>
      </trkpt>
      <trkpt lat="50.54489" lon="3.44433">
        <ele>16.749904</ele>
        <time>2020-09-17T09:38:41.260Z</time>
      </trkpt>
      <trkpt lat="50.54494" lon="3.44392">
        <ele>16.602915</ele>
        <time>2020-09-17T09:38:45.986Z</time>
      </trkpt>
      <trkpt lat="50.54508" lon="3.44226">
        <ele>16.00802</ele>
        <time>2020-09-17T09:39:05.364Z</time>
      </trkpt>
      <trkpt lat="50.54518" lon="3.44112">
        <ele>15.622707</ele>
        <time>2020-09-17T09:39:19.527Z</time>
      </trkpt>
      <trkpt lat="50.54516" lon="3.44077">
        <ele>15.506955</ele>
        <time>2020-09-17T09:39:23.558Z</time>
      </trkpt>
      <trkpt lat="50.54515" lon="3.44071">
        <ele>15.486303</ele>
        <time>2020-09-17T09:39:24.423Z</time>
      </trkpt>
      <trkpt lat="50.54511" lon="3.44051">
        <ele>15.418937</ele>
        <time>2020-09-17T09:39:26.896Z</time>
      </trkpt>
      <trkpt lat="50.54501" lon="3.43991">
        <ele>15.214625</ele>
        <time>2020-09-17T09:39:34.176Z</time>
      </trkpt>
      <trkpt lat="50.54501" lon="3.43988">
        <ele>15.207441</ele>
        <time>2020-09-17T09:39:34.447Z</time>
      </trkpt>
      <trkpt lat="50.54501" lon="3.4397">
        <ele>15.148806</ele>
        <time>2020-09-17T09:39:36.377Z</time>
      </trkpt>
      <trkpt lat="50.54505" lon="3.43927">
        <ele>15.005284</ele>
        <time>2020-09-17T09:39:41.720Z</time>
      </trkpt>
      <trkpt lat="50.54526" lon="3.43876">
        <ele>14.919722</ele>
        <time>2020-09-17T09:39:48.780Z</time>
      </trkpt>
      <trkpt lat="50.5453" lon="3.43871">
        <ele>14.915805</ele>
        <time>2020-09-17T09:39:49.563Z</time>
      </trkpt>
      <trkpt lat="50.54543" lon="3.43866">
        <ele>14.905247</ele>
        <time>2020-09-17T09:39:52.239Z</time>
      </trkpt>
      <trkpt lat="50.54554" lon="3.43862">
        <ele>14.896476</ele>
        <time>2020-09-17T09:39:54.386Z</time>
      </trkpt>
      <trkpt lat="50.54576" lon="3.43854">
        <ele>14.878805</ele>
        <time>2020-09-17T09:39:58.554Z</time>
      </trkpt>
      <trkpt lat="50.54585" lon="3.43851">
        <ele>14.87212</ele>
        <time>2020-09-17T09:40:00.386Z</time>
      </trkpt>
      <trkpt lat="50.54706" lon="3.43806">
        <ele>15.001564</ele>
        <time>2020-09-17T09:40:26.888Z</time>
      </trkpt>
      <trkpt lat="50.54713" lon="3.43803">
        <ele>15.044309</ele>
        <time>2020-09-17T09:40:28.506Z</time>
      </trkpt>
      <trkpt lat="50.54733" lon="3.43795">
        <ele>15.177573</ele>
        <time>2020-09-17T09:40:33.770Z</time>
      </trkpt>
      <trkpt lat="50.54791" lon="3.43766">
        <ele>15.554855</ele>
        <time>2020-09-17T09:40:48.330Z</time>
      </trkpt>
      <trkpt lat="50.54967" lon="3.43634">
        <ele>16.092608</ele>
        <time>2020-09-17T09:41:30.869Z</time>
      </trkpt>
      <trkpt lat="50.55012" lon="3.43602">
        <ele>16.131148</ele>
        <time>2020-09-17T09:41:39.909Z</time>
      </trkpt>
      <trkpt lat="50.55041" lon="3.43582">
        <ele>16.047241</ele>
        <time>2020-09-17T09:41:45.711Z</time>
      </trkpt>
      <trkpt lat="50.55069" lon="3.43549">
        <ele>15.954973</ele>
        <time>2020-09-17T09:41:52.100Z</time>
      </trkpt>
      <trkpt lat="50.55087" lon="3.43541">
        <ele>15.905052</ele>
        <time>2020-09-17T09:41:55.493Z</time>
      </trkpt>
      <trkpt lat="50.55102" lon="3.43536">
        <ele>15.864266</ele>
        <time>2020-09-17T09:41:58.391Z</time>
      </trkpt>
      <trkpt lat="50.5511" lon="3.43534">
        <ele>15.843335</ele>
        <time>2020-09-17T09:41:59.781Z</time>
      </trkpt>
      <trkpt lat="50.55121" lon="3.43525">
        <ele>15.809901</ele>
        <time>2020-09-17T09:42:02.088Z</time>
      </trkpt>
      <trkpt lat="50.5527" lon="3.43406">
        <ele>16.184214</ele>
        <time>2020-09-17T09:42:38.404Z</time>
      </trkpt>
      <trkpt lat="50.55356" lon="3.43369">
        <ele>16.478315</ele>
        <time>2020-09-17T09:42:58.778Z</time>
      </trkpt>
      <trkpt lat="50.55416" lon="3.4335">
        <ele>16.454751</ele>
        <time>2020-09-17T09:43:11.801Z</time>
      </trkpt>
      <trkpt lat="50.5546" lon="3.43342">
        <ele>16.43761</ele>
        <time>2020-09-17T09:43:20.552Z</time>
      </trkpt>
      <trkpt lat="50.5559" lon="3.43346">
        <ele>16.127266</ele>
        <time>2020-09-17T09:43:44.292Z</time>
      </trkpt>
      <trkpt lat="50.55712" lon="3.43385">
        <ele>15.870343</ele>
        <time>2020-09-17T09:44:08.030Z</time>
      </trkpt>
      <trkpt lat="50.55812" lon="3.43451">
        <ele>16.42136</ele>
        <time>2020-09-17T09:44:32.314Z</time>
      </trkpt>
      <trkpt lat="50.55875" lon="3.43506">
        <ele>16.877548</ele>
        <time>2020-09-17T09:44:49.750Z</time>
      </trkpt>
      <trkpt lat="50.55997" lon="3.43655">
        <ele>18.255189</ele>
        <time>2020-09-17T09:45:25.715Z</time>
      </trkpt>
      <trkpt lat="50.56071" lon="3.43784">
        <ele>19.901402</ele>
        <time>2020-09-17T09:45:54.724Z</time>
      </trkpt>
      <trkpt lat="50.56084" lon="3.43825">
        <ele>20.335633</ele>
        <time>2020-09-17T09:46:29.462Z</time>
      </trkpt>
      <trkpt lat="50.56158" lon="3.43942">
        <ele>21.108992</ele>
        <time>2020-09-17T09:48:33.513Z</time>
      </trkpt>
      <trkpt lat="50.56223" lon="3.44029">
        <ele>21.296012</ele>
        <time>2020-09-17T09:50:08.404Z</time>
      </trkpt>
      <trkpt lat="50.5623" lon="3.44038">
        <ele>21.315774</ele>
        <time>2020-09-17T09:50:18.615Z</time>
      </trkpt>
      <trkpt lat="50.56246" lon="3.44047">
        <ele>21.352314</ele>
        <time>2020-09-17T09:50:21.124Z</time>
      </trkpt>
      <trkpt lat="50.56268" lon="3.44063">
        <ele>21.012791</ele>
        <time>2020-09-17T09:50:25.416Z</time>
      </trkpt>
      <trkpt lat="50.56327" lon="3.44114">
        <ele>19.731828</ele>
        <time>2020-09-17T09:50:36.028Z</time>
      </trkpt>
      <trkpt lat="50.56367" lon="3.44147">
        <ele>18.868346</ele>
        <time>2020-09-17T09:50:42.740Z</time>
      </trkpt>
      <trkpt lat="50.56399" lon="3.4417">
        <ele>18.206563</ele>
        <time>2020-09-17T09:50:47.979Z</time>
      </trkpt>
      <trkpt lat="50.5654" lon="3.44229">
        <ele>17.037716</ele>
        <time>2020-09-17T09:51:13.599Z</time>
      </trkpt>
      <trkpt lat="50.56556" lon="3.44251">
        <ele>16.891663</ele>
        <time>2020-09-17T09:51:18.247Z</time>
      </trkpt>
      <trkpt lat="50.56562" lon="3.44265">
        <ele>16.818221</ele>
        <time>2020-09-17T09:51:20.318Z</time>
      </trkpt>
      <trkpt lat="50.56583" lon="3.44325">
        <ele>16.958004</ele>
        <time>2020-09-17T09:51:29.816Z</time>
      </trkpt>
      <trkpt lat="50.56598" lon="3.44335">
        <ele>17.102446</ele>
        <time>2020-09-17T09:51:33.729Z</time>
      </trkpt>
      <trkpt lat="50.56658" lon="3.44416">
        <ele>17.816697</ele>
        <time>2020-09-17T09:51:53.144Z</time>
      </trkpt>
      <trkpt lat="50.56704" lon="3.4445">
        <ele>18.273664</ele>
        <time>2020-09-17T09:52:06.282Z</time>
      </trkpt>
      <trkpt lat="50.56727" lon="3.44465">
        <ele>18.436335</ele>
        <time>2020-09-17T09:52:12.035Z</time>
      </trkpt>
      <trkpt lat="50.56727" lon="3.44465">
        <ele>18.436335</ele>
        <time>2020-09-17T09:52:12.106Z</time>
      </trkpt>
      <trkpt lat="50.5673" lon="3.44467">
        <ele>18.456109</ele>
        <time>2020-09-17T09:52:13.048Z</time>
      </trkpt>
      <trkpt lat="50.56746" lon="3.44474">
        <ele>18.554434</ele>
        <time>2020-09-17T09:52:16.330Z</time>
      </trkpt>
      <trkpt lat="50.56754" lon="3.44476">
        <ele>18.600815</ele>
        <time>2020-09-17T09:52:18.020Z</time>
      </trkpt>
      <trkpt lat="50.56754" lon="3.44496">
        <ele>18.676208</ele>
        <time>2020-09-17T09:52:20.887Z</time>
      </trkpt>
      <trkpt lat="50.56765" lon="3.44495">
        <ele>18.743547</ele>
        <time>2020-09-17T09:52:23.139Z</time>
      </trkpt>
      <trkpt lat="50.56775" lon="3.44487">
        <ele>18.809948</ele>
        <time>2020-09-17T09:52:25.293Z</time>
      </trkpt>
      <trkpt lat="50.56791" lon="3.44467">
        <ele>18.928447</ele>
        <time>2020-09-17T09:52:30.298Z</time>
      </trkpt>
      <trkpt lat="50.56797" lon="3.44462">
        <ele>18.966632</ele>
        <time>2020-09-17T09:52:31.477Z</time>
      </trkpt>
      <trkpt lat="50.56797" lon="3.44462">
        <ele>18.966632</ele>
        <time>2020-09-17T09:52:31.481Z</time>
      </trkpt>
      <trkpt lat="50.56809" lon="3.44501">
        <ele>19.126665</ele>
        <time>2020-09-17T09:52:37.995Z</time>
      </trkpt>
      <trkpt lat="50.56832" lon="3.44485">
        <ele>19.274586</ele>
        <time>2020-09-17T09:52:41.764Z</time>
      </trkpt>
      <trkpt lat="50.56853" lon="3.44471">
        <ele>19.398198</ele>
        <time>2020-09-17T09:52:45.413Z</time>
      </trkpt>
      <trkpt lat="50.56871" lon="3.44452">
        <ele>19.449217</ele>
        <time>2020-09-17T09:52:49.190Z</time>
      </trkpt>
      <trkpt lat="50.56885" lon="3.44439">
        <ele>19.486765</ele>
        <time>2020-09-17T09:52:51.303Z</time>
      </trkpt>
      <trkpt lat="50.56893" lon="3.44434">
        <ele>19.506416</ele>
        <time>2020-09-17T09:52:52.584Z</time>
      </trkpt>
      <trkpt lat="50.56917" lon="3.44427">
        <ele>19.56349</ele>
        <time>2020-09-17T09:52:56.262Z</time>
      </trkpt>
      <trkpt lat="50.56942" lon="3.44419">
        <ele>19.621211</ele>
        <time>2020-09-17T09:53:00.396Z</time>
      </trkpt>
      <trkpt lat="50.56976" lon="3.44409">
        <ele>19.701479</ele>
        <time>2020-09-17T09:53:05.629Z</time>
      </trkpt>
      <trkpt lat="50.57037" lon="3.44381">
        <ele>19.840765</ele>
        <time>2020-09-17T09:53:15.907Z</time>
      </trkpt>
      <trkpt lat="50.57047" lon="3.44376">
        <ele>19.860221</ele>
        <time>2020-09-17T09:53:17.668Z</time>
      </trkpt>
      <trkpt lat="50.5707" lon="3.44371">
        <ele>19.903695</ele>
        <time>2020-09-17T09:53:21.575Z</time>
      </trkpt>
      <trkpt lat="50.57126" lon="3.44364">
        <ele>20.006849</ele>
        <time>2020-09-17T09:53:31.513Z</time>
      </trkpt>
      <trkpt lat="50.57202" lon="3.44368">
        <ele>20.119214</ele>
        <time>2020-09-17T09:53:42.124Z</time>
      </trkpt>
      <trkpt lat="50.57217" lon="3.44385">
        <ele>20.017138</ele>
        <time>2020-09-17T09:53:44.466Z</time>
      </trkpt>
      <trkpt lat="50.57214" lon="3.44392">
        <ele>19.992086</ele>
        <time>2020-09-17T09:53:45.459Z</time>
      </trkpt>
      <trkpt lat="50.57213" lon="3.44413">
        <ele>19.917424</ele>
        <time>2020-09-17T09:53:47.142Z</time>
      </trkpt>
      <trkpt lat="50.57216" lon="3.44421">
        <ele>19.887749</ele>
        <time>2020-09-17T09:53:48.098Z</time>
      </trkpt>
      <trkpt lat="50.57218" lon="3.44427">
        <ele>19.864149</ele>
        <time>2020-09-17T09:53:48.627Z</time>
      </trkpt>
      <trkpt lat="50.57226" lon="3.44436">
        <ele>19.810037</ele>
        <time>2020-09-17T09:53:49.793Z</time>
      </trkpt>
      <trkpt lat="50.57233" lon="3.44437">
        <ele>19.775185</ele>
        <time>2020-09-17T09:53:50.873Z</time>
      </trkpt>
      <trkpt lat="50.57238" lon="3.44437">
        <ele>19.745772</ele>
        <time>2020-09-17T09:53:51.486Z</time>
      </trkpt>
      <trkpt lat="50.57249" lon="3.44428">
        <ele>19.67709</ele>
        <time>2020-09-17T09:53:53.280Z</time>
      </trkpt>
      <trkpt lat="50.57252" lon="3.44422">
        <ele>19.650838</ele>
        <time>2020-09-17T09:53:53.812Z</time>
      </trkpt>
      <trkpt lat="50.57254" lon="3.44419">
        <ele>19.636553</ele>
        <time>2020-09-17T09:53:54.080Z</time>
      </trkpt>
      <trkpt lat="50.57255" lon="3.44396">
        <ele>19.556575</ele>
        <time>2020-09-17T09:53:56.259Z</time>
      </trkpt>
      <trkpt lat="50.57252" lon="3.44385">
        <ele>19.515992</ele>
        <time>2020-09-17T09:53:57.211Z</time>
      </trkpt>
      <trkpt lat="50.57266" lon="3.44374">
        <ele>19.431155</ele>
        <time>2020-09-17T09:53:59.095Z</time>
      </trkpt>
      <trkpt lat="50.57276" lon="3.4437">
        <ele>19.372237</ele>
        <time>2020-09-17T09:54:00.875Z</time>
      </trkpt>
      <trkpt lat="50.57346" lon="3.44374">
        <ele>19.035838</ele>
        <time>2020-09-17T09:54:09.947Z</time>
      </trkpt>
      <trkpt lat="50.57427" lon="3.44377">
        <ele>18.707309</ele>
        <time>2020-09-17T09:54:20.548Z</time>
      </trkpt>
      <trkpt lat="50.57535" lon="3.44384">
        <ele>18.298343</ele>
        <time>2020-09-17T09:54:36.325Z</time>
      </trkpt>
      <trkpt lat="50.57633" lon="3.44381">
        <ele>17.980936</ele>
        <time>2020-09-17T09:54:49.642Z</time>
      </trkpt>
      <trkpt lat="50.57733" lon="3.4437">
        <ele>17.75588</ele>
        <time>2020-09-17T09:55:02.687Z</time>
      </trkpt>
      <trkpt lat="50.57852" lon="3.44354">
        <ele>17.57315</ele>
        <time>2020-09-17T09:55:20.139Z</time>
      </trkpt>
      <trkpt lat="50.5786" lon="3.44352">
        <ele>17.602428</ele>
        <time>2020-09-17T09:55:21.632Z</time>
      </trkpt>
      <trkpt lat="50.57901" lon="3.44345">
        <ele>17.836276</ele>
        <time>2020-09-17T09:55:28.684Z</time>
      </trkpt>
      <trkpt lat="50.58088" lon="3.44256">
        <ele>18.824593</ele>
        <time>2020-09-17T09:56:02.631Z</time>
      </trkpt>
      <trkpt lat="50.58104" lon="3.44247">
        <ele>18.895885</ele>
        <time>2020-09-17T09:56:05.385Z</time>
      </trkpt>
      <trkpt lat="50.58231" lon="3.44094">
        <ele>19.335335</ele>
        <time>2020-09-17T09:56:30.858Z</time>
      </trkpt>
      <trkpt lat="50.5832" lon="3.43947">
        <ele>19.351158</ele>
        <time>2020-09-17T09:56:50.074Z</time>
      </trkpt>
      <trkpt lat="50.58322" lon="3.43944">
        <ele>19.335205</ele>
        <time>2020-09-17T09:56:50.706Z</time>
      </trkpt>
      <trkpt lat="50.58498" lon="3.43639">
        <ele>17.933379</ele>
        <time>2020-09-17T09:57:24.728Z</time>
      </trkpt>
      <trkpt lat="50.58584" lon="3.43445">
        <ele>16.996615</ele>
        <time>2020-09-17T09:57:44.597Z</time>
      </trkpt>
      <trkpt lat="50.58677" lon="3.43278">
        <ele>16.085174</ele>
        <time>2020-09-17T09:58:02.330Z</time>
      </trkpt>
      <trkpt lat="50.5871" lon="3.43211">
        <ele>15.837226</ele>
        <time>2020-09-17T09:58:09.269Z</time>
      </trkpt>
      <trkpt lat="50.58743" lon="3.43142">
        <ele>15.582471</ele>
        <time>2020-09-17T09:58:16.759Z</time>
      </trkpt>
      <trkpt lat="50.58753" lon="3.43121">
        <ele>15.507308</ele>
        <time>2020-09-17T09:58:18.923Z</time>
      </trkpt>
      <trkpt lat="50.58768" lon="3.43087">
        <ele>15.384093</ele>
        <time>2020-09-17T09:58:22.708Z</time>
      </trkpt>
      <trkpt lat="50.58834" lon="3.42948">
        <ele>15.434832</ele>
        <time>2020-09-17T09:58:39.341Z</time>
      </trkpt>
      <trkpt lat="50.58834" lon="3.42948">
        <ele>15.435027</ele>
        <time>2020-09-17T09:58:39.384Z</time>
      </trkpt>
      <trkpt lat="50.58854" lon="3.42906">
        <ele>15.454813</ele>
        <time>2020-09-17T09:58:44.520Z</time>
      </trkpt>
      <trkpt lat="50.58913" lon="3.42748">
        <ele>15.541687</ele>
        <time>2020-09-17T09:59:02.535Z</time>
      </trkpt>
      <trkpt lat="50.58929" lon="3.42706">
        <ele>15.567733</ele>
        <time>2020-09-17T09:59:07.283Z</time>
      </trkpt>
      <trkpt lat="50.58932" lon="3.42698">
        <ele>15.572625</ele>
        <time>2020-09-17T09:59:08.188Z</time>
      </trkpt>
      <trkpt lat="50.58949" lon="3.42644">
        <ele>15.603898</ele>
        <time>2020-09-17T09:59:13.867Z</time>
      </trkpt>
      <trkpt lat="50.58963" lon="3.42612">
        <ele>15.624169</ele>
        <time>2020-09-17T09:59:17.550Z</time>
      </trkpt>
      <trkpt lat="50.58981" lon="3.42598">
        <ele>15.645832</ele>
        <time>2020-09-17T09:59:20.464Z</time>
      </trkpt>
      <trkpt lat="50.58993" lon="3.42588">
        <ele>15.661957</ele>
        <time>2020-09-17T09:59:22.675Z</time>
      </trkpt>
      <trkpt lat="50.58998" lon="3.4258">
        <ele>15.669848</ele>
        <time>2020-09-17T09:59:23.759Z</time>
      </trkpt>
      <trkpt lat="50.58999" lon="3.42571">
        <ele>15.676838</ele>
        <time>2020-09-17T09:59:24.670Z</time>
      </trkpt>
      <trkpt lat="50.58998" lon="3.42565">
        <ele>15.681154</ele>
        <time>2020-09-17T09:59:25.198Z</time>
      </trkpt>
      <trkpt lat="50.58996" lon="3.42559">
        <ele>15.685957</ele>
        <time>2020-09-17T09:59:25.786Z</time>
      </trkpt>
      <trkpt lat="50.58998" lon="3.42542">
        <ele>15.698433</ele>
        <time>2020-09-17T09:59:27.506Z</time>
      </trkpt>
      <trkpt lat="50.59009" lon="3.42506">
        <ele>15.727548</ele>
        <time>2020-09-17T09:59:31.365Z</time>
      </trkpt>
      <trkpt lat="50.5903" lon="3.42458">
        <ele>15.769607</ele>
        <time>2020-09-17T09:59:36.928Z</time>
      </trkpt>
      <trkpt lat="50.5909" lon="3.42381">
        <ele>16.016402</ele>
        <time>2020-09-17T09:59:48.800Z</time>
      </trkpt>
      <trkpt lat="50.5911" lon="3.42349">
        <ele>16.240388</ele>
        <time>2020-09-17T09:59:53.399Z</time>
      </trkpt>
      <trkpt lat="50.5928" lon="3.42011">
        <ele>19.012823</ele>
        <time>2020-09-17T10:00:45.573Z</time>
      </trkpt>
      <trkpt lat="50.59442" lon="3.41709">
        <ele>22.008771</ele>
        <time>2020-09-17T10:01:39.895Z</time>
      </trkpt>
      <trkpt lat="50.59484" lon="3.41615">
        <ele>21.608404</ele>
        <time>2020-09-17T10:01:49.532Z</time>
      </trkpt>
      <trkpt lat="50.59569" lon="3.41393">
        <ele>19.729233</ele>
        <time>2020-09-17T10:02:07.724Z</time>
      </trkpt>
      <trkpt lat="50.59581" lon="3.41371">
        <ele>19.4454</ele>
        <time>2020-09-17T10:02:09.598Z</time>
      </trkpt>
      <trkpt lat="50.59591" lon="3.41355">
        <ele>19.226526</ele>
        <time>2020-09-17T10:02:11.858Z</time>
      </trkpt>
      <trkpt lat="50.59608" lon="3.41333">
        <ele>18.878427</ele>
        <time>2020-09-17T10:02:14.250Z</time>
      </trkpt>
      <trkpt lat="50.59642" lon="3.41305">
        <ele>18.380314</ele>
        <time>2020-09-17T10:02:19.181Z</time>
      </trkpt>
      <trkpt lat="50.59659" lon="3.41249">
        <ele>18.34714</ele>
        <time>2020-09-17T10:02:24.465Z</time>
      </trkpt>
      <trkpt lat="50.59671" lon="3.41228">
        <ele>18.331462</ele>
        <time>2020-09-17T10:02:27.494Z</time>
      </trkpt>
      <trkpt lat="50.59686" lon="3.41203">
        <ele>18.312886</ele>
        <time>2020-09-17T10:02:30.682Z</time>
      </trkpt>
      <trkpt lat="50.59692" lon="3.41192">
        <ele>18.304688</ele>
        <time>2020-09-17T10:02:32.680Z</time>
      </trkpt>
      <trkpt lat="50.59694" lon="3.41189">
        <ele>18.302491</ele>
        <time>2020-09-17T10:02:33.027Z</time>
      </trkpt>
      <trkpt lat="50.59728" lon="3.41129">
        <ele>18.259085</ele>
        <time>2020-09-17T10:02:41.245Z</time>
      </trkpt>
      <trkpt lat="50.59728" lon="3.41124">
        <ele>18.256628</ele>
        <time>2020-09-17T10:02:41.583Z</time>
      </trkpt>
      <trkpt lat="50.59731" lon="3.4111">
        <ele>18.24875</ele>
        <time>2020-09-17T10:02:43.059Z</time>
      </trkpt>
      <trkpt lat="50.59732" lon="3.41087">
        <ele>18.236154</ele>
        <time>2020-09-17T10:02:45.245Z</time>
      </trkpt>
      <trkpt lat="50.59732" lon="3.41083">
        <ele>18.233981</ele>
        <time>2020-09-17T10:02:45.628Z</time>
      </trkpt>
      <trkpt lat="50.59733" lon="3.41064">
        <ele>18.188511</ele>
        <time>2020-09-17T10:02:47.230Z</time>
      </trkpt>
      <trkpt lat="50.59734" lon="3.41053">
        <ele>18.161847</ele>
        <time>2020-09-17T10:02:48.299Z</time>
      </trkpt>
      <trkpt lat="50.59737" lon="3.41043">
        <ele>18.133981</ele>
        <time>2020-09-17T10:02:49.357Z</time>
      </trkpt>
      <trkpt lat="50.59768" lon="3.40969">
        <ele>17.912108</ele>
        <time>2020-09-17T10:02:56.809Z</time>
      </trkpt>
      <trkpt lat="50.59783" lon="3.40933">
        <ele>17.804681</ele>
        <time>2020-09-17T10:03:00.470Z</time>
      </trkpt>
      <trkpt lat="50.5979" lon="3.40918">
        <ele>17.759298</ele>
        <time>2020-09-17T10:03:01.909Z</time>
      </trkpt>
      <trkpt lat="50.59791" lon="3.40917">
        <ele>17.75382</ele>
        <time>2020-09-17T10:03:02.083Z</time>
      </trkpt>
      <trkpt lat="50.59802" lon="3.4089">
        <ele>17.675723</ele>
        <time>2020-09-17T10:03:04.695Z</time>
      </trkpt>
      <trkpt lat="50.59816" lon="3.40857">
        <ele>17.57439</ele>
        <time>2020-09-17T10:03:08.136Z</time>
      </trkpt>
      <trkpt lat="50.59848" lon="3.40807">
        <ele>17.48986</ele>
        <time>2020-09-17T10:03:14.252Z</time>
      </trkpt>
      <trkpt lat="50.59855" lon="3.40795">
        <ele>17.477609</ele>
        <time>2020-09-17T10:03:15.828Z</time>
      </trkpt>
      <trkpt lat="50.59861" lon="3.40783">
        <ele>17.466389</ele>
        <time>2020-09-17T10:03:17.157Z</time>
      </trkpt>
      <trkpt lat="50.59878" lon="3.40745">
        <ele>17.432643</ele>
        <time>2020-09-17T10:03:21.415Z</time>
      </trkpt>
      <trkpt lat="50.59894" lon="3.40717">
        <ele>17.405557</ele>
        <time>2020-09-17T10:03:24.945Z</time>
      </trkpt>
      <trkpt lat="50.59907" lon="3.40687">
        <ele>17.378851</ele>
        <time>2020-09-17T10:03:28.537Z</time>
      </trkpt>
      <trkpt lat="50.59918" lon="3.40665">
        <ele>17.35836</ele>
        <time>2020-09-17T10:03:31.344Z</time>
      </trkpt>
      <trkpt lat="50.59956" lon="3.40581">
        <ele>17.196309</ele>
        <time>2020-09-17T10:03:40.923Z</time>
      </trkpt>
      <trkpt lat="50.59982" lon="3.40527">
        <ele>17.034199</ele>
        <time>2020-09-17T10:03:47.218Z</time>
      </trkpt>
      <trkpt lat="50.59999" lon="3.405">
        <ele>16.94492</ele>
        <time>2020-09-17T10:03:50.439Z</time>
      </trkpt>
      <trkpt lat="50.60016" lon="3.40477">
        <ele>16.858405</ele>
        <time>2020-09-17T10:03:53.377Z</time>
      </trkpt>
      <trkpt lat="50.60034" lon="3.40456">
        <ele>16.772895</ele>
        <time>2020-09-17T10:03:56.213Z</time>
      </trkpt>
      <trkpt lat="50.60042" lon="3.40449">
        <ele>16.740511</ele>
        <time>2020-09-17T10:03:57.271Z</time>
      </trkpt>
      <trkpt lat="50.60063" lon="3.40429">
        <ele>16.646384</ele>
        <time>2020-09-17T10:04:00.358Z</time>
      </trkpt>
      <trkpt lat="50.60076" lon="3.40416">
        <ele>16.661953</ele>
        <time>2020-09-17T10:04:02.198Z</time>
      </trkpt>
      <trkpt lat="50.60085" lon="3.40406">
        <ele>16.680354</ele>
        <time>2020-09-17T10:04:03.956Z</time>
      </trkpt>
      <trkpt lat="50.60088" lon="3.40403">
        <ele>16.687161</ele>
        <time>2020-09-17T10:04:04.450Z</time>
      </trkpt>
      <trkpt lat="50.60093" lon="3.404">
        <ele>16.69511</ele>
        <time>2020-09-17T10:04:05.037Z</time>
      </trkpt>
      <trkpt lat="50.601" lon="3.40395">
        <ele>16.708861</ele>
        <time>2020-09-17T10:04:06.058Z</time>
      </trkpt>
      <trkpt lat="50.60094" lon="3.4039">
        <ele>16.720703</ele>
        <time>2020-09-17T10:04:07.282Z</time>
      </trkpt>
      <trkpt lat="50.60089" lon="3.40389">
        <ele>16.728985</ele>
        <time>2020-09-17T10:04:08.393Z</time>
      </trkpt>
      <trkpt lat="50.60075" lon="3.4038">
        <ele>16.755025</ele>
        <time>2020-09-17T10:04:11.569Z</time>
      </trkpt>
      <trkpt lat="50.60072" lon="3.40377">
        <ele>16.760666</ele>
        <time>2020-09-17T10:04:12.139Z</time>
      </trkpt>
      <trkpt lat="50.60055" lon="3.40358">
        <ele>16.795465</ele>
        <time>2020-09-17T10:04:16.664Z</time>
      </trkpt>
      <trkpt lat="50.60042" lon="3.40345">
        <ele>16.820686</ele>
        <time>2020-09-17T10:04:19.771Z</time>
      </trkpt>
      <trkpt lat="50.60011" lon="3.40312">
        <ele>16.88438</ele>
        <time>2020-09-17T10:04:28.485Z</time>
      </trkpt>
      <trkpt lat="50.60007" lon="3.40305">
        <ele>16.894558</ele>
        <time>2020-09-17T10:04:29.906Z</time>
      </trkpt>
      <trkpt lat="50.60004" lon="3.40295">
        <ele>16.905967</ele>
        <time>2020-09-17T10:04:31.596Z</time>
      </trkpt>
      <trkpt lat="50.60003" lon="3.40283">
        <ele>16.91977</ele>
        <time>2020-09-17T10:04:33.841Z</time>
      </trkpt>
      <trkpt lat="50.60007" lon="3.40258">
        <ele>16.973526</ele>
        <time>2020-09-17T10:04:37.272Z</time>
      </trkpt>
      <trkpt lat="50.60023" lon="3.40218">
        <ele>17.28484</ele>
        <time>2020-09-17T10:04:44.546Z</time>
      </trkpt>
      <trkpt lat="50.60033" lon="3.40192">
        <ele>17.479275</ele>
        <time>2020-09-17T10:04:49.252Z</time>
      </trkpt>
      <trkpt lat="50.60048" lon="3.40158">
        <ele>17.750341</ele>
        <time>2020-09-17T10:04:55.856Z</time>
      </trkpt>
      <trkpt lat="50.60051" lon="3.40152">
        <ele>17.806499</ele>
        <time>2020-09-17T10:04:57.412Z</time>
      </trkpt>
      <trkpt lat="50.60075" lon="3.40109">
        <ele>18.17611</ele>
        <time>2020-09-17T10:05:06.654Z</time>
      </trkpt>
      <trkpt lat="50.60076" lon="3.40107">
        <ele>18.191316</ele>
        <time>2020-09-17T10:05:07.174Z</time>
      </trkpt>
      <trkpt lat="50.60082" lon="3.40098">
        <ele>18.27935</ele>
        <time>2020-09-17T10:05:09.225Z</time>
      </trkpt>
      <trkpt lat="50.60092" lon="3.40083">
        <ele>18.422369</ele>
        <time>2020-09-17T10:05:11.931Z</time>
      </trkpt>
      <trkpt lat="50.60116" lon="3.40055">
        <ele>18.732225</ele>
        <time>2020-09-17T10:05:17.353Z</time>
      </trkpt>
      <trkpt lat="50.60154" lon="3.40014">
        <ele>18.84464</ele>
        <time>2020-09-17T10:05:24.829Z</time>
      </trkpt>
      <trkpt lat="50.60167" lon="3.40002">
        <ele>18.860828</ele>
        <time>2020-09-17T10:05:26.735Z</time>
      </trkpt>
      <trkpt lat="50.60176" lon="3.39994">
        <ele>18.87259</ele>
        <time>2020-09-17T10:05:28.119Z</time>
      </trkpt>
      <trkpt lat="50.60186" lon="3.39986">
        <ele>18.884352</ele>
        <time>2020-09-17T10:05:29.699Z</time>
      </trkpt>
      <trkpt lat="50.60193" lon="3.39985">
        <ele>18.892623</ele>
        <time>2020-09-17T10:05:30.920Z</time>
      </trkpt>
      <trkpt lat="50.60204" lon="3.39984">
        <ele>18.904205</ele>
        <time>2020-09-17T10:05:33.214Z</time>
      </trkpt>
      <trkpt lat="50.60251" lon="3.39948">
        <ele>18.961554</ele>
        <time>2020-09-17T10:05:43.773Z</time>
      </trkpt>
      <trkpt lat="50.60313" lon="3.39897">
        <ele>19.043599</ele>
        <time>2020-09-17T10:05:58.575Z</time>
      </trkpt>
      <trkpt lat="50.60351" lon="3.39866">
        <ele>19.097187</ele>
        <time>2020-09-17T10:06:07.370Z</time>
      </trkpt>
      <trkpt lat="50.60403" lon="3.3982">
        <ele>19.170945</ele>
        <time>2020-09-17T10:06:19.704Z</time>
      </trkpt>
      <trkpt lat="50.60408" lon="3.39815">
        <ele>19.178493</ele>
        <time>2020-09-17T10:06:21.294Z</time>
      </trkpt>
      <trkpt lat="50.60414" lon="3.39809">
        <ele>19.187485</ele>
        <time>2020-09-17T10:06:22.731Z</time>
      </trkpt>
      <trkpt lat="50.60448" lon="3.39773">
        <ele>19.175672</ele>
        <time>2020-09-17T10:06:31.337Z</time>
      </trkpt>
      <trkpt lat="50.60482" lon="3.3972">
        <ele>19.010848</ele>
        <time>2020-09-17T10:06:41.000Z</time>
      </trkpt>
      <trkpt lat="50.60487" lon="3.3971">
        <ele>18.982455</ele>
        <time>2020-09-17T10:06:42.559Z</time>
      </trkpt>
      <trkpt lat="50.60487" lon="3.3971">
        <ele>18.982455</ele>
        <time>2020-09-17T10:06:42.562Z</time>
      </trkpt>
      <trkpt lat="50.60491" lon="3.39704">
        <ele>18.962444</ele>
        <time>2020-09-17T10:06:43.837Z</time>
      </trkpt>
      <trkpt lat="50.60519" lon="3.39661">
        <ele>18.827375</ele>
        <time>2020-09-17T10:06:50.998Z</time>
      </trkpt>
      <trkpt lat="50.60524" lon="3.39654">
        <ele>18.806356</ele>
        <time>2020-09-17T10:06:52.058Z</time>
      </trkpt>
      <trkpt lat="50.60527" lon="3.3965">
        <ele>18.791742</ele>
        <time>2020-09-17T10:06:52.818Z</time>
      </trkpt>
      <trkpt lat="50.6053" lon="3.39644">
        <ele>18.774926</ele>
        <time>2020-09-17T10:06:53.646Z</time>
      </trkpt>
      <trkpt lat="50.60535" lon="3.39635">
        <ele>18.748159</ele>
        <time>2020-09-17T10:06:55.051Z</time>
      </trkpt>
      <trkpt lat="50.60538" lon="3.39628">
        <ele>18.730574</ele>
        <time>2020-09-17T10:06:55.854Z</time>
      </trkpt>
      <trkpt lat="50.60552" lon="3.39603">
        <ele>18.657502</ele>
        <time>2020-09-17T10:06:59.666Z</time>
      </trkpt>
      <trkpt lat="50.60579" lon="3.39549">
        <ele>18.549979</ele>
        <time>2020-09-17T10:07:07.836Z</time>
      </trkpt>
      <trkpt lat="50.60591" lon="3.39528">
        <ele>18.518202</ele>
        <time>2020-09-17T10:07:10.985Z</time>
      </trkpt>
      <trkpt lat="50.60631" lon="3.39444">
        <ele>18.398119</ele>
        <time>2020-09-17T10:07:24.032Z</time>
      </trkpt>
      <trkpt lat="50.60656" lon="3.39396">
        <ele>18.327537</ele>
        <time>2020-09-17T10:07:32.217Z</time>
      </trkpt>
      <trkpt lat="50.60659" lon="3.39389">
        <ele>18.317387</ele>
        <time>2020-09-17T10:07:33.570Z</time>
      </trkpt>
      <trkpt lat="50.60663" lon="3.39378">
        <ele>18.304364</ele>
        <time>2020-09-17T10:07:35.266Z</time>
      </trkpt>
      <trkpt lat="50.60678" lon="3.39341">
        <ele>18.294282</ele>
        <time>2020-09-17T10:07:40.914Z</time>
      </trkpt>
      <trkpt lat="50.60685" lon="3.39329">
        <ele>18.310181</ele>
        <time>2020-09-17T10:07:43.258Z</time>
      </trkpt>
      <trkpt lat="50.60689" lon="3.39323">
        <ele>18.319229</ele>
        <time>2020-09-17T10:07:44.310Z</time>
      </trkpt>
      <trkpt lat="50.60762" lon="3.39225">
        <ele>18.470051</ele>
        <time>2020-09-17T10:08:05.019Z</time>
      </trkpt>
      <trkpt lat="50.60769" lon="3.39218">
        <ele>18.483208</ele>
        <time>2020-09-17T10:08:06.770Z</time>
      </trkpt>
      <trkpt lat="50.60775" lon="3.39209">
        <ele>18.496552</ele>
        <time>2020-09-17T10:08:08.390Z</time>
      </trkpt>
      <trkpt lat="50.60798" lon="3.3918">
        <ele>18.542506</ele>
        <time>2020-09-17T10:08:14.244Z</time>
      </trkpt>
      <trkpt lat="50.60821" lon="3.39154">
        <ele>18.566354</ele>
        <time>2020-09-17T10:08:19.794Z</time>
      </trkpt>
      <trkpt lat="50.60838" lon="3.39134">
        <ele>18.576057</ele>
        <time>2020-09-17T10:08:24.023Z</time>
      </trkpt>
      <trkpt lat="50.6085" lon="3.39117">
        <ele>18.583062</ele>
        <time>2020-09-17T10:08:27.136Z</time>
      </trkpt>
      <trkpt lat="50.60851" lon="3.39116">
        <ele>18.58361</ele>
        <time>2020-09-17T10:08:27.378Z</time>
      </trkpt>
      <trkpt lat="50.60854" lon="3.39112">
        <ele>18.585372</ele>
        <time>2020-09-17T10:08:28.146Z</time>
      </trkpt>
      <trkpt lat="50.60855" lon="3.3911">
        <ele>18.586288</ele>
        <time>2020-09-17T10:08:28.559Z</time>
      </trkpt>
      <trkpt lat="50.60927" lon="3.38996">
        <ele>18.631866</ele>
        <time>2020-09-17T10:08:49.629Z</time>
      </trkpt>
      <trkpt lat="50.60937" lon="3.3898">
        <ele>18.638151</ele>
        <time>2020-09-17T10:08:52.618Z</time>
      </trkpt>
      <trkpt lat="50.60934" lon="3.38977">
        <ele>18.637018</ele>
        <time>2020-09-17T10:08:53.686Z</time>
      </trkpt>
      <trkpt lat="50.60939" lon="3.38968">
        <ele>18.62706</ele>
        <time>2020-09-17T10:08:55.136Z</time>
      </trkpt>
      <trkpt lat="50.60964" lon="3.3892">
        <ele>18.572389</ele>
        <time>2020-09-17T10:09:03.326Z</time>
      </trkpt>
      <trkpt lat="50.60971" lon="3.38902">
        <ele>18.554516</ele>
        <time>2020-09-17T10:09:05.967Z</time>
      </trkpt>
      <trkpt lat="50.60975" lon="3.38894">
        <ele>18.545729</ele>
        <time>2020-09-17T10:09:07.357Z</time>
      </trkpt>
      <trkpt lat="50.60979" lon="3.38888">
        <ele>18.538133</ele>
        <time>2020-09-17T10:09:08.473Z</time>
      </trkpt>
      <trkpt lat="50.60984" lon="3.38879">
        <ele>18.528611</ele>
        <time>2020-09-17T10:09:09.739Z</time>
      </trkpt>
      <trkpt lat="50.61023" lon="3.38804">
        <ele>18.443344</ele>
        <time>2020-09-17T10:09:21.814Z</time>
      </trkpt>
      <trkpt lat="50.61052" lon="3.38751">
        <ele>18.381979</ele>
        <time>2020-09-17T10:09:30.353Z</time>
      </trkpt>
      <trkpt lat="50.61071" lon="3.38715">
        <ele>18.338786</ele>
        <time>2020-09-17T10:09:36.050Z</time>
      </trkpt>
      <trkpt lat="50.61082" lon="3.38699">
        <ele>18.316786</ele>
        <time>2020-09-17T10:09:38.826Z</time>
      </trkpt>
      <trkpt lat="50.61085" lon="3.38693">
        <ele>18.309778</ele>
        <time>2020-09-17T10:09:39.635Z</time>
      </trkpt>
      <trkpt lat="50.61122" lon="3.38626">
        <ele>18.226726</ele>
        <time>2020-09-17T10:09:50.626Z</time>
      </trkpt>
      <trkpt lat="50.61212" lon="3.38504">
        <ele>18.191383</ele>
        <time>2020-09-17T10:10:15.212Z</time>
      </trkpt>
      <trkpt lat="50.61215" lon="3.385">
        <ele>18.196243</ele>
        <time>2020-09-17T10:10:16.283Z</time>
      </trkpt>
      <trkpt lat="50.61249" lon="3.38463">
        <ele>18.24562</ele>
        <time>2020-09-17T10:10:25.170Z</time>
      </trkpt>
      <trkpt lat="50.61257" lon="3.38455">
        <ele>18.256917</ele>
        <time>2020-09-17T10:10:27.446Z</time>
      </trkpt>
      <trkpt lat="50.61281" lon="3.38432">
        <ele>18.290238</ele>
        <time>2020-09-17T10:10:33.278Z</time>
      </trkpt>
      <trkpt lat="50.61305" lon="3.38413">
        <ele>18.32317</ele>
        <time>2020-09-17T10:10:38.716Z</time>
      </trkpt>
      <trkpt lat="50.61317" lon="3.38396">
        <ele>18.34256</ele>
        <time>2020-09-17T10:10:42.249Z</time>
      </trkpt>
      <trkpt lat="50.61327" lon="3.38378">
        <ele>18.22717</ele>
        <time>2020-09-17T10:10:44.894Z</time>
      </trkpt>
      <trkpt lat="50.61367" lon="3.38329">
        <ele>17.777995</ele>
        <time>2020-09-17T10:10:54.084Z</time>
      </trkpt>
      <trkpt lat="50.61392" lon="3.383">
        <ele>17.504314</ele>
        <time>2020-09-17T10:10:59.395Z</time>
      </trkpt>
      <trkpt lat="50.61396" lon="3.38304">
        <ele>17.4604</ele>
        <time>2020-09-17T10:11:00.208Z</time>
      </trkpt>
      <trkpt lat="50.61401" lon="3.38297">
        <ele>17.402978</ele>
        <time>2020-09-17T10:11:01.298Z</time>
      </trkpt>
      <trkpt lat="50.61426" lon="3.38265">
        <ele>17.117482</ele>
        <time>2020-09-17T10:11:06.780Z</time>
      </trkpt>
      <trkpt lat="50.61447" lon="3.38239">
        <ele>16.881022</ele>
        <time>2020-09-17T10:11:11.374Z</time>
      </trkpt>
      <trkpt lat="50.61462" lon="3.38222">
        <ele>16.730982</ele>
        <time>2020-09-17T10:11:14.387Z</time>
      </trkpt>
      <trkpt lat="50.61483" lon="3.38198">
        <ele>16.575065</ele>
        <time>2020-09-17T10:11:18.975Z</time>
      </trkpt>
      <trkpt lat="50.61507" lon="3.38169">
        <ele>16.391358</ele>
        <time>2020-09-17T10:11:24.358Z</time>
      </trkpt>
      <trkpt lat="50.61581" lon="3.38081">
        <ele>15.837888</ele>
        <time>2020-09-17T10:11:41.039Z</time>
      </trkpt>
      <trkpt lat="50.6162" lon="3.38037">
        <ele>15.726211</ele>
        <time>2020-09-17T10:11:51.164Z</time>
      </trkpt>
      <trkpt lat="50.61653" lon="3.38009">
        <ele>15.82</ele>
        <time>2020-09-17T10:11:59.301Z</time>
      </trkpt>
      <trkpt lat="50.61658" lon="3.38006">
        <ele>15.833851</ele>
        <time>2020-09-17T10:12:00.521Z</time>
      </trkpt>
      <trkpt lat="50.61683" lon="3.3799">
        <ele>15.901594</ele>
        <time>2020-09-17T10:12:06.337Z</time>
      </trkpt>
      <trkpt lat="50.61717" lon="3.37979">
        <ele>15.988554</ele>
        <time>2020-09-17T10:12:13.741Z</time>
      </trkpt>
      <trkpt lat="50.61761" lon="3.37978">
        <ele>16.098861</ele>
        <time>2020-09-17T10:12:23.141Z</time>
      </trkpt>
      <trkpt lat="50.61804" lon="3.37974">
        <ele>16.212659</ele>
        <time>2020-09-17T10:12:32.342Z</time>
      </trkpt>
      <trkpt lat="50.61842" lon="3.3798">
        <ele>16.316738</ele>
        <time>2020-09-17T10:12:40.572Z</time>
      </trkpt>
      <trkpt lat="50.61917" lon="3.37996">
        <ele>16.517868</ele>
        <time>2020-09-17T10:12:56.708Z</time>
      </trkpt>
      <trkpt lat="50.61976" lon="3.38">
        <ele>16.654675</ele>
        <time>2020-09-17T10:13:09.369Z</time>
      </trkpt>
      <trkpt lat="50.62061" lon="3.37989">
        <ele>16.808776</ele>
        <time>2020-09-17T10:13:27.369Z</time>
      </trkpt>
      <trkpt lat="50.62105" lon="3.37978">
        <ele>16.891269</ele>
        <time>2020-09-17T10:13:36.844Z</time>
      </trkpt>
      <trkpt lat="50.62113" lon="3.37971">
        <ele>16.907268</ele>
        <time>2020-09-17T10:13:38.520Z</time>
      </trkpt>
      <trkpt lat="50.62197" lon="3.37932">
        <ele>16.684193</ele>
        <time>2020-09-17T10:13:56.018Z</time>
      </trkpt>
      <trkpt lat="50.62316" lon="3.37849">
        <ele>16.178247</ele>
        <time>2020-09-17T10:14:19.908Z</time>
      </trkpt>
      <trkpt lat="50.62398" lon="3.3775">
        <ele>15.536514</ele>
        <time>2020-09-17T10:14:38.896Z</time>
      </trkpt>
      <trkpt lat="50.6249" lon="3.37619">
        <ele>14.729371</ele>
        <time>2020-09-17T10:15:01.133Z</time>
      </trkpt>
      <trkpt lat="50.62529" lon="3.37554">
        <ele>14.343822</ele>
        <time>2020-09-17T10:15:11.413Z</time>
      </trkpt>
      <trkpt lat="50.62554" lon="3.37528">
        <ele>14.140618</ele>
        <time>2020-09-17T10:15:16.860Z</time>
      </trkpt>
      <trkpt lat="50.626" lon="3.37459">
        <ele>13.889537</ele>
        <time>2020-09-17T10:15:28.595Z</time>
      </trkpt>
      <trkpt lat="50.62658" lon="3.37388">
        <ele>13.716216</ele>
        <time>2020-09-17T10:15:42.648Z</time>
      </trkpt>
      <trkpt lat="50.62758" lon="3.37296">
        <ele>13.607879</ele>
        <time>2020-09-17T10:16:06.371Z</time>
      </trkpt>
      <trkpt lat="50.62785" lon="3.37279">
        <ele>13.636244</ele>
        <time>2020-09-17T10:16:12.245Z</time>
      </trkpt>
      <trkpt lat="50.62775" lon="3.37244">
        <ele>13.660061</ele>
        <time>2020-09-17T10:16:17.151Z</time>
      </trkpt>
      <trkpt lat="50.62796" lon="3.37219">
        <ele>13.686574</ele>
        <time>2020-09-17T10:16:22.840Z</time>
      </trkpt>
      <trkpt lat="50.62806" lon="3.3721">
        <ele>13.697979</ele>
        <time>2020-09-17T10:16:25.151Z</time>
      </trkpt>
      <trkpt lat="50.62904" lon="3.37119">
        <ele>13.993034</ele>
        <time>2020-09-17T10:16:49.154Z</time>
      </trkpt>
      <trkpt lat="50.62912" lon="3.37111">
        <ele>14.026277</ele>
        <time>2020-09-17T10:16:51.344Z</time>
      </trkpt>
      <trkpt lat="50.62928" lon="3.37097">
        <ele>14.0869</ele>
        <time>2020-09-17T10:16:55.012Z</time>
      </trkpt>
      <trkpt lat="50.62994" lon="3.37031">
        <ele>14.35484</ele>
        <time>2020-09-17T10:17:12.000Z</time>
      </trkpt>
      <trkpt lat="50.63077" lon="3.36954">
        <ele>14.715916</ele>
        <time>2020-09-17T10:17:33.797Z</time>
      </trkpt>
      <trkpt lat="50.63116" lon="3.36933">
        <ele>14.872837</ele>
        <time>2020-09-17T10:17:42.857Z</time>
      </trkpt>
      <trkpt lat="50.63178" lon="3.36851">
        <ele>14.954499</ele>
        <time>2020-09-17T10:17:59.707Z</time>
      </trkpt>
      <trkpt lat="50.6319" lon="3.36825">
        <ele>14.917013</ele>
        <time>2020-09-17T10:18:03.664Z</time>
      </trkpt>
      <trkpt lat="50.63239" lon="3.36721">
        <ele>14.764197</ele>
        <time>2020-09-17T10:18:19.614Z</time>
      </trkpt>
      <trkpt lat="50.63299" lon="3.36555">
        <ele>14.370958</ele>
        <time>2020-09-17T10:18:42.104Z</time>
      </trkpt>
      <trkpt lat="50.63325" lon="3.36476">
        <ele>14.152546</ele>
        <time>2020-09-17T10:18:52.846Z</time>
      </trkpt>
      <trkpt lat="50.63385" lon="3.36263">
        <ele>13.713579</ele>
        <time>2020-09-17T10:19:21.452Z</time>
      </trkpt>
      <trkpt lat="50.63425" lon="3.3614">
        <ele>13.483371</ele>
        <time>2020-09-17T10:19:38.479Z</time>
      </trkpt>
      <trkpt lat="50.63497" lon="3.35968">
        <ele>13.143229</ele>
        <time>2020-09-17T10:20:03.590Z</time>
      </trkpt>
      <trkpt lat="50.63572" lon="3.35823">
        <ele>12.891922</ele>
        <time>2020-09-17T10:20:26.829Z</time>
      </trkpt>
      <trkpt lat="50.63618" lon="3.35745">
        <ele>12.762467</ele>
        <time>2020-09-17T10:20:40.096Z</time>
      </trkpt>
      <trkpt lat="50.63724" lon="3.35591">
        <ele>12.471422</ele>
        <time>2020-09-17T10:21:08.052Z</time>
      </trkpt>
      <trkpt lat="50.63785" lon="3.35513">
        <ele>12.362657</ele>
        <time>2020-09-17T10:21:23.497Z</time>
      </trkpt>
      <trkpt lat="50.63858" lon="3.35437">
        <ele>12.472173</ele>
        <time>2020-09-17T10:21:41.096Z</time>
      </trkpt>
      <trkpt lat="50.64036" lon="3.35289">
        <ele>12.951294</ele>
        <time>2020-09-17T10:22:24.476Z</time>
      </trkpt>
      <trkpt lat="50.64159" lon="3.35217">
        <ele>13.162891</ele>
        <time>2020-09-17T10:22:52.350Z</time>
      </trkpt>
      <trkpt lat="50.6425" lon="3.35175">
        <ele>13.214645</ele>
        <time>2020-09-17T10:23:11.733Z</time>
      </trkpt>
      <trkpt lat="50.64517" lon="3.35097">
        <ele>12.406139</ele>
        <time>2020-09-17T10:24:03.678Z</time>
      </trkpt>
      <trkpt lat="50.64527" lon="3.351">
        <ele>12.364179</ele>
        <time>2020-09-17T10:24:05.627Z</time>
      </trkpt>
      <trkpt lat="50.64531" lon="3.35102">
        <ele>12.348319</ele>
        <time>2020-09-17T10:24:06.260Z</time>
      </trkpt>
      <trkpt lat="50.64536" lon="3.35102">
        <ele>12.325789</ele>
        <time>2020-09-17T10:24:07.278Z</time>
      </trkpt>
      <trkpt lat="50.64541" lon="3.35099">
        <ele>12.30502</ele>
        <time>2020-09-17T10:24:08.200Z</time>
      </trkpt>
      <trkpt lat="50.64548" lon="3.3522">
        <ele>11.993678</ele>
        <time>2020-09-17T10:24:22.547Z</time>
      </trkpt>
      <trkpt lat="50.64564" lon="3.35533">
        <ele>11.520271</ele>
        <time>2020-09-17T10:25:00.775Z</time>
      </trkpt>
      <trkpt lat="50.6457" lon="3.35538">
        <ele>11.526256</ele>
        <time>2020-09-17T10:25:02.223Z</time>
      </trkpt>
      <trkpt lat="50.6457" lon="3.35538">
        <ele>11.526256</ele>
        <time>2020-09-17T10:25:02.225Z</time>
      </trkpt>
      <trkpt lat="50.6457" lon="3.35525">
        <ele>11.533641</ele>
        <time>2020-09-17T10:25:03.381Z</time>
      </trkpt>
      <trkpt lat="50.64574" lon="3.35279">
        <ele>11.77861</ele>
        <time>2020-09-17T10:25:27.528Z</time>
      </trkpt>
      <trkpt lat="50.64564" lon="3.3513">
        <ele>12.560071</ele>
        <time>2020-09-17T10:25:44.205Z</time>
      </trkpt>
      <trkpt lat="50.64561" lon="3.35095">
        <ele>12.742817</ele>
        <time>2020-09-17T10:25:48.498Z</time>
      </trkpt>
      <trkpt lat="50.6455" lon="3.3499">
        <ele>13.449949</ele>
        <time>2020-09-17T10:26:01.942Z</time>
      </trkpt>
      <trkpt lat="50.64519" lon="3.34722">
        <ele>16.256127</ele>
        <time>2020-09-17T10:26:39.308Z</time>
      </trkpt>
      <trkpt lat="50.64507" lon="3.34606">
        <ele>17.647739</ele>
        <time>2020-09-17T10:26:56.007Z</time>
      </trkpt>
      <trkpt lat="50.64505" lon="3.34574">
        <ele>18.02597</ele>
        <time>2020-09-17T10:27:01.152Z</time>
      </trkpt>
      <trkpt lat="50.64452" lon="3.3457">
        <ele>19.028038</ele>
        <time>2020-09-17T10:27:13.189Z</time>
      </trkpt>
      <trkpt lat="50.6441" lon="3.34564">
        <ele>19.655284</ele>
        <time>2020-09-17T10:27:21.486Z</time>
      </trkpt>
      <trkpt lat="50.64404" lon="3.34565">
        <ele>19.728077</ele>
        <time>2020-09-17T10:27:22.625Z</time>
      </trkpt>
      <trkpt lat="50.64401" lon="3.3457">
        <ele>19.785702</ele>
        <time>2020-09-17T10:27:24.127Z</time>
      </trkpt>
      <trkpt lat="50.64392" lon="3.34612">
        <ele>20.126471</ele>
        <time>2020-09-17T10:27:29.318Z</time>
      </trkpt>
      <trkpt lat="50.64348" lon="3.34656">
        <ele>20.766711</ele>
        <time>2020-09-17T10:27:40.126Z</time>
      </trkpt>
      <trkpt lat="50.64342" lon="3.34659">
        <ele>20.850643</ele>
        <time>2020-09-17T10:27:41.801Z</time>
      </trkpt>
      <trkpt lat="50.64324" lon="3.34641">
        <ele>21.108679</ele>
        <time>2020-09-17T10:27:45.688Z</time>
      </trkpt>
      <trkpt lat="50.64317" lon="3.3463">
        <ele>21.225482</ele>
        <time>2020-09-17T10:27:47.673Z</time>
      </trkpt>
      <trkpt lat="50.64308" lon="3.34614">
        <ele>21.399275</ele>
        <time>2020-09-17T10:27:49.893Z</time>
      </trkpt>
      <trkpt lat="50.64302" lon="3.34604">
        <ele>21.497738</ele>
        <time>2020-09-17T10:27:51.247Z</time>
      </trkpt>
      <trkpt lat="50.64292" lon="3.34588">
        <ele>21.598435</ele>
        <time>2020-09-17T10:27:54.512Z</time>
      </trkpt>
      <trkpt lat="50.6429" lon="3.34586">
        <ele>21.602162</ele>
        <time>2020-09-17T10:27:55.001Z</time>
      </trkpt>
      <trkpt lat="50.64258" lon="3.34537">
        <ele>21.67325</ele>
        <time>2020-09-17T10:28:01.717Z</time>
      </trkpt>
      <trkpt lat="50.64216" lon="3.34472">
        <ele>21.766196</ele>
        <time>2020-09-17T10:28:10.180Z</time>
      </trkpt>
      <trkpt lat="50.64193" lon="3.34437">
        <ele>21.817155</ele>
        <time>2020-09-17T10:28:14.743Z</time>
      </trkpt>
      <trkpt lat="50.6419" lon="3.34433">
        <ele>21.823165</ele>
        <time>2020-09-17T10:28:15.364Z</time>
      </trkpt>
      <trkpt lat="50.64161" lon="3.34392">
        <ele>21.854678</ele>
        <time>2020-09-17T10:28:21.505Z</time>
      </trkpt>
      <trkpt lat="50.6412" lon="3.34341">
        <ele>21.739268</ele>
        <time>2020-09-17T10:28:29.106Z</time>
      </trkpt>
      <trkpt lat="50.64044" lon="3.34245">
        <ele>21.52359</ele>
        <time>2020-09-17T10:28:42.797Z</time>
      </trkpt>
      <trkpt lat="50.63919" lon="3.34071">
        <ele>20.288637</ele>
        <time>2020-09-17T10:29:04.244Z</time>
      </trkpt>
      <trkpt lat="50.63914" lon="3.34067">
        <ele>20.242336</ele>
        <time>2020-09-17T10:29:04.849Z</time>
      </trkpt>
      <trkpt lat="50.63888" lon="3.34044">
        <ele>19.998915</ele>
        <time>2020-09-17T10:29:08.516Z</time>
      </trkpt>
      <trkpt lat="50.63886" lon="3.34048">
        <ele>19.952975</ele>
        <time>2020-09-17T10:29:09.055Z</time>
      </trkpt>
      <trkpt lat="50.63868" lon="3.34058">
        <ele>19.709589</ele>
        <time>2020-09-17T10:29:12.142Z</time>
      </trkpt>
      <trkpt lat="50.6386" lon="3.34072">
        <ele>19.554325</ele>
        <time>2020-09-17T10:29:14.364Z</time>
      </trkpt>
      <trkpt lat="50.63853" lon="3.34097">
        <ele>19.33151</ele>
        <time>2020-09-17T10:29:17.235Z</time>
      </trkpt>
      <trkpt lat="50.63854" lon="3.34211">
        <ele>18.393918</ele>
        <time>2020-09-17T10:29:29.094Z</time>
      </trkpt>
      <trkpt lat="50.6385" lon="3.34221">
        <ele>18.298085</ele>
        <time>2020-09-17T10:29:30.152Z</time>
      </trkpt>
      <trkpt lat="50.63743" lon="3.34309">
        <ele>17.184458</ele>
        <time>2020-09-17T10:29:51.538Z</time>
      </trkpt>
      <trkpt lat="50.63743" lon="3.34309">
        <ele>17.183663</ele>
        <time>2020-09-17T10:29:51.550Z</time>
      </trkpt>
      <trkpt lat="50.63708" lon="3.3435">
        <ele>16.893324</ele>
        <time>2020-09-17T10:29:59.107Z</time>
      </trkpt>
      <trkpt lat="50.63671" lon="3.34416">
        <ele>16.514855</ele>
        <time>2020-09-17T10:30:09.875Z</time>
      </trkpt>
      <trkpt lat="50.63666" lon="3.34431">
        <ele>16.461966</ele>
        <time>2020-09-17T10:30:11.982Z</time>
      </trkpt>
      <trkpt lat="50.63632" lon="3.34698">
        <ele>16.465492</ele>
        <time>2020-09-17T10:30:47.925Z</time>
      </trkpt>
      <trkpt lat="50.63577" lon="3.3483">
        <ele>16.061475</ele>
        <time>2020-09-17T10:31:06.819Z</time>
      </trkpt>
      <trkpt lat="50.63579" lon="3.34874">
        <ele>15.941896</ele>
        <time>2020-09-17T10:31:12.043Z</time>
      </trkpt>
      <trkpt lat="50.63582" lon="3.34881">
        <ele>15.919209</ele>
        <time>2020-09-17T10:31:12.976Z</time>
      </trkpt>
      <trkpt lat="50.63618" lon="3.34969">
        <ele>15.668978</ele>
        <time>2020-09-17T10:31:25.081Z</time>
      </trkpt>
      <trkpt lat="50.63644" lon="3.35032">
        <ele>15.560422</ele>
        <time>2020-09-17T10:31:33.852Z</time>
      </trkpt>
      <trkpt lat="50.63539" lon="3.3507">
        <ele>15.317451</ele>
        <time>2020-09-17T10:31:48.934Z</time>
      </trkpt>
      <trkpt lat="50.63314" lon="3.35183">
        <ele>16.427319</ele>
        <time>2020-09-17T10:32:29.618Z</time>
      </trkpt>
      <trkpt lat="50.63046" lon="3.35389">
        <ele>17.58766</ele>
        <time>2020-09-17T10:33:18.966Z</time>
      </trkpt>
      <trkpt lat="50.63043" lon="3.35388">
        <ele>17.596738</ele>
        <time>2020-09-17T10:33:19.260Z</time>
      </trkpt>
      <trkpt lat="50.63038" lon="3.35383">
        <ele>17.618126</ele>
        <time>2020-09-17T10:33:20.126Z</time>
      </trkpt>
      <trkpt lat="50.63026" lon="3.35372">
        <ele>17.649593</ele>
        <time>2020-09-17T10:33:22.316Z</time>
      </trkpt>
      <trkpt lat="50.63014" lon="3.35373">
        <ele>17.669232</ele>
        <time>2020-09-17T10:33:24.130Z</time>
      </trkpt>
      <trkpt lat="50.62972" lon="3.35453">
        <ele>17.77694</ele>
        <time>2020-09-17T10:33:33.868Z</time>
      </trkpt>
      <trkpt lat="50.62967" lon="3.35457">
        <ele>17.786401</ele>
        <time>2020-09-17T10:33:34.688Z</time>
      </trkpt>
      <trkpt lat="50.62956" lon="3.35466">
        <ele>17.806811</ele>
        <time>2020-09-17T10:33:37.011Z</time>
      </trkpt>
      <trkpt lat="50.62889" lon="3.35523">
        <ele>17.938723</ele>
        <time>2020-09-17T10:33:53.283Z</time>
      </trkpt>
      <trkpt lat="50.62721" lon="3.35617">
        <ele>19.212458</ele>
        <time>2020-09-17T10:34:35.308Z</time>
      </trkpt>
      <trkpt lat="50.62663" lon="3.3564">
        <ele>19.420331</ele>
        <time>2020-09-17T10:34:48.362Z</time>
      </trkpt>
      <trkpt lat="50.62652" lon="3.35646">
        <ele>19.460491</ele>
        <time>2020-09-17T10:34:50.865Z</time>
      </trkpt>
      <trkpt lat="50.62608" lon="3.35663">
        <ele>19.616837</ele>
        <time>2020-09-17T10:35:00.312Z</time>
      </trkpt>
      <trkpt lat="50.62589" lon="3.35671">
        <ele>19.685163</ele>
        <time>2020-09-17T10:35:04.297Z</time>
      </trkpt>
      <trkpt lat="50.62452" lon="3.35725">
        <ele>20.266828</ele>
        <time>2020-09-17T10:35:34.435Z</time>
      </trkpt>
      <trkpt lat="50.62436" lon="3.35726">
        <ele>20.339057</ele>
        <time>2020-09-17T10:35:38.180Z</time>
      </trkpt>
      <trkpt lat="50.62422" lon="3.35734">
        <ele>20.40365</ele>
        <time>2020-09-17T10:35:41.493Z</time>
      </trkpt>
      <trkpt lat="50.6238" lon="3.35769">
        <ele>20.614983</ele>
        <time>2020-09-17T10:35:49.864Z</time>
      </trkpt>
      <trkpt lat="50.62351" lon="3.35721">
        <ele>20.826331</ele>
        <time>2020-09-17T10:35:57.114Z</time>
      </trkpt>
      <trkpt lat="50.62327" lon="3.35674">
        <ele>21.023707</ele>
        <time>2020-09-17T10:36:03.873Z</time>
      </trkpt>
      <trkpt lat="50.62305" lon="3.35604">
        <ele>21.276081</ele>
        <time>2020-09-17T10:36:12.252Z</time>
      </trkpt>
      <trkpt lat="50.62279" lon="3.35537">
        <ele>21.532838</ele>
        <time>2020-09-17T10:36:20.117Z</time>
      </trkpt>
      <trkpt lat="50.6226" lon="3.3549">
        <ele>21.800116</ele>
        <time>2020-09-17T10:36:27.686Z</time>
      </trkpt>
      <trkpt lat="50.62218" lon="3.354">
        <ele>22.367491</ele>
        <time>2020-09-17T10:36:44.060Z</time>
      </trkpt>
      <trkpt lat="50.62171" lon="3.35318">
        <ele>22.926816</ele>
        <time>2020-09-17T10:37:00.554Z</time>
      </trkpt>
      <trkpt lat="50.6217" lon="3.35317">
        <ele>22.939835</ele>
        <time>2020-09-17T10:37:01.204Z</time>
      </trkpt>
      <trkpt lat="50.62165" lon="3.35317">
        <ele>22.97829</ele>
        <time>2020-09-17T10:37:02.278Z</time>
      </trkpt>
      <trkpt lat="50.62159" lon="3.35325">
        <ele>23.088245</ele>
        <time>2020-09-17T10:37:04.085Z</time>
      </trkpt>
      <trkpt lat="50.62154" lon="3.35319">
        <ele>23.178423</ele>
        <time>2020-09-17T10:37:05.548Z</time>
      </trkpt>
      <trkpt lat="50.6205" lon="3.3515">
        <ele>25.528864</ele>
        <time>2020-09-17T10:37:38.632Z</time>
      </trkpt>
      <trkpt lat="50.62047" lon="3.35144">
        <ele>25.610549</ele>
        <time>2020-09-17T10:37:39.980Z</time>
      </trkpt>
      <trkpt lat="50.62044" lon="3.3514">
        <ele>25.669231</ele>
        <time>2020-09-17T10:37:41.136Z</time>
      </trkpt>
      <trkpt lat="50.62041" lon="3.35137">
        <ele>25.725439</ele>
        <time>2020-09-17T10:37:41.814Z</time>
      </trkpt>
      <trkpt lat="50.6202" lon="3.35176">
        <ele>25.828345</ele>
        <time>2020-09-17T10:37:47.974Z</time>
      </trkpt>
      <trkpt lat="50.61999" lon="3.35214">
        <ele>25.831509</ele>
        <time>2020-09-17T10:37:53.259Z</time>
      </trkpt>
      <trkpt lat="50.61969" lon="3.35283">
        <ele>25.836821</ele>
        <time>2020-09-17T10:38:01.122Z</time>
      </trkpt>
      <trkpt lat="50.61963" lon="3.35295">
        <ele>25.837708</ele>
        <time>2020-09-17T10:38:02.184Z</time>
      </trkpt>
      <trkpt lat="50.61937" lon="3.35352">
        <ele>25.842127</ele>
        <time>2020-09-17T10:38:08.298Z</time>
      </trkpt>
      <trkpt lat="50.61921" lon="3.35401">
        <ele>25.562936</ele>
        <time>2020-09-17T10:38:12.442Z</time>
      </trkpt>
      <trkpt lat="50.6192" lon="3.35409">
        <ele>25.491888</ele>
        <time>2020-09-17T10:38:12.980Z</time>
      </trkpt>
      <trkpt lat="50.61918" lon="3.35432">
        <ele>25.283047</ele>
        <time>2020-09-17T10:38:14.763Z</time>
      </trkpt>
      <trkpt lat="50.61946" lon="3.35839">
        <ele>21.831017</ele>
        <time>2020-09-17T10:38:44.891Z</time>
      </trkpt>
      <trkpt lat="50.61946" lon="3.35841">
        <ele>21.816448</ele>
        <time>2020-09-17T10:38:45.015Z</time>
      </trkpt>
      <trkpt lat="50.61949" lon="3.35894">
        <ele>21.385725</ele>
        <time>2020-09-17T10:38:49.189Z</time>
      </trkpt>
      <trkpt lat="50.61948" lon="3.35925">
        <ele>21.134142</ele>
        <time>2020-09-17T10:38:51.615Z</time>
      </trkpt>
      <trkpt lat="50.61946" lon="3.35955">
        <ele>20.987665</ele>
        <time>2020-09-17T10:38:53.898Z</time>
      </trkpt>
      <trkpt lat="50.61936" lon="3.36">
        <ele>20.793235</ele>
        <time>2020-09-17T10:38:57.708Z</time>
      </trkpt>
      <trkpt lat="50.61841" lon="3.36222">
        <ele>19.962678</ele>
        <time>2020-09-17T10:39:20.188Z</time>
      </trkpt>
      <trkpt lat="50.61836" lon="3.36235">
        <ele>19.971542</ele>
        <time>2020-09-17T10:39:21.660Z</time>
      </trkpt>
      <trkpt lat="50.61826" lon="3.36255">
        <ele>19.985723</ele>
        <time>2020-09-17T10:39:24.038Z</time>
      </trkpt>
      <trkpt lat="50.61822" lon="3.36268">
        <ele>19.993648</ele>
        <time>2020-09-17T10:39:25.479Z</time>
      </trkpt>
      <trkpt lat="50.61805" lon="3.36317">
        <ele>20.024679</ele>
        <time>2020-09-17T10:39:30.937Z</time>
      </trkpt>
      <trkpt lat="50.61789" lon="3.36358">
        <ele>20.051736</ele>
        <time>2020-09-17T10:39:35.748Z</time>
      </trkpt>
      <trkpt lat="50.61765" lon="3.36415">
        <ele>20.089646</ele>
        <time>2020-09-17T10:39:42.885Z</time>
      </trkpt>
      <trkpt lat="50.61643" lon="3.367">
        <ele>21.291204</ele>
        <time>2020-09-17T10:40:20.571Z</time>
      </trkpt>
      <trkpt lat="50.61605" lon="3.36788">
        <ele>21.554919</ele>
        <time>2020-09-17T10:40:31.904Z</time>
      </trkpt>
      <trkpt lat="50.6153" lon="3.36962">
        <ele>21.715845</ele>
        <time>2020-09-17T10:40:52.873Z</time>
      </trkpt>
      <trkpt lat="50.61505" lon="3.37019">
        <ele>21.617125</ele>
        <time>2020-09-17T10:40:58.885Z</time>
      </trkpt>
      <trkpt lat="50.61371" lon="3.37329">
        <ele>21.164363</ele>
        <time>2020-09-17T10:41:30.770Z</time>
      </trkpt>
      <trkpt lat="50.61358" lon="3.37357">
        <ele>21.172789</ele>
        <time>2020-09-17T10:41:34.701Z</time>
      </trkpt>
      <trkpt lat="50.61354" lon="3.37361">
        <ele>21.231004</ele>
        <time>2020-09-17T10:41:35.540Z</time>
      </trkpt>
      <trkpt lat="50.61353" lon="3.37367">
        <ele>21.283511</ele>
        <time>2020-09-17T10:41:36.280Z</time>
      </trkpt>
      <trkpt lat="50.61346" lon="3.37383">
        <ele>21.443705</ele>
        <time>2020-09-17T10:41:38.635Z</time>
      </trkpt>
      <trkpt lat="50.61254" lon="3.37286">
        <ele>22.880569</ele>
        <time>2020-09-17T10:42:07.603Z</time>
      </trkpt>
      <trkpt lat="50.61218" lon="3.37248">
        <ele>23.434614</ele>
        <time>2020-09-17T10:42:19.393Z</time>
      </trkpt>
      <trkpt lat="50.61196" lon="3.37224">
        <ele>23.82392</ele>
        <time>2020-09-17T10:42:26.702Z</time>
      </trkpt>
      <trkpt lat="50.6099" lon="3.37068">
        <ele>27.248584</ele>
        <time>2020-09-17T10:43:25.533Z</time>
      </trkpt>
      <trkpt lat="50.6099" lon="3.37068">
        <ele>27.248584</ele>
        <time>2020-09-17T10:43:25.642Z</time>
      </trkpt>
      <trkpt lat="50.6099" lon="3.37063">
        <ele>27.2926</ele>
        <time>2020-09-17T10:43:26.447Z</time>
      </trkpt>
      <trkpt lat="50.60989" lon="3.37055">
        <ele>27.379456</ele>
        <time>2020-09-17T10:43:27.895Z</time>
      </trkpt>
      <trkpt lat="50.60987" lon="3.37052">
        <ele>27.423267</ele>
        <time>2020-09-17T10:43:28.702Z</time>
      </trkpt>
      <trkpt lat="50.60983" lon="3.3705">
        <ele>27.476041</ele>
        <time>2020-09-17T10:43:29.605Z</time>
      </trkpt>
      <trkpt lat="50.6098" lon="3.37051">
        <ele>27.53007</ele>
        <time>2020-09-17T10:43:30.433Z</time>
      </trkpt>
      <trkpt lat="50.60977" lon="3.37053">
        <ele>27.581136</ele>
        <time>2020-09-17T10:43:31.197Z</time>
      </trkpt>
      <trkpt lat="50.60975" lon="3.37057">
        <ele>27.632635</ele>
        <time>2020-09-17T10:43:31.957Z</time>
      </trkpt>
      <trkpt lat="50.60951" lon="3.37047">
        <ele>28.023702</ele>
        <time>2020-09-17T10:43:38.892Z</time>
      </trkpt>
      <trkpt lat="50.60931" lon="3.37041">
        <ele>28.342185</ele>
        <time>2020-09-17T10:43:43.777Z</time>
      </trkpt>
      <trkpt lat="50.60914" lon="3.37036">
        <ele>28.617739</ele>
        <time>2020-09-17T10:43:48.948Z</time>
      </trkpt>
      <trkpt lat="50.60903" lon="3.37036">
        <ele>28.793856</ele>
        <time>2020-09-17T10:43:51.624Z</time>
      </trkpt>
      <trkpt lat="50.60877" lon="3.37037">
        <ele>29.245903</ele>
        <time>2020-09-17T10:43:59.041Z</time>
      </trkpt>
      <trkpt lat="50.60857" lon="3.3704">
        <ele>29.605961</ele>
        <time>2020-09-17T10:44:04.111Z</time>
      </trkpt>
      <trkpt lat="50.60842" lon="3.37044">
        <ele>29.880305</ele>
        <time>2020-09-17T10:44:08.893Z</time>
      </trkpt>
      <trkpt lat="50.60835" lon="3.37037">
        <ele>30.023702</ele>
        <time>2020-09-17T10:44:10.907Z</time>
      </trkpt>
      <trkpt lat="50.60818" lon="3.37041">
        <ele>30.327329</ele>
        <time>2020-09-17T10:44:15.479Z</time>
      </trkpt>
      <trkpt lat="50.60807" lon="3.37049">
        <ele>30.552202</ele>
        <time>2020-09-17T10:44:18.982Z</time>
      </trkpt>
      <trkpt lat="50.60775" lon="3.37055">
        <ele>31.123725</ele>
        <time>2020-09-17T10:44:27.618Z</time>
      </trkpt>
      <trkpt lat="50.60757" lon="3.37056">
        <ele>31.449427</ele>
        <time>2020-09-17T10:44:32.592Z</time>
      </trkpt>
      <trkpt lat="50.60713" lon="3.37055">
        <ele>32.23434</ele>
        <time>2020-09-17T10:44:44.636Z</time>
      </trkpt>
      <trkpt lat="50.60672" lon="3.37054">
        <ele>33.020032</ele>
        <time>2020-09-17T10:44:56.118Z</time>
      </trkpt>
      <trkpt lat="50.60603" lon="3.37039">
        <ele>34.342138</ele>
        <time>2020-09-17T10:45:15.486Z</time>
      </trkpt>
      <trkpt lat="50.60566" lon="3.37026">
        <ele>35.061978</ele>
        <time>2020-09-17T10:45:26.495Z</time>
      </trkpt>
      <trkpt lat="50.60454" lon="3.3699">
        <ele>37.07087</ele>
        <time>2020-09-17T10:45:57.748Z</time>
      </trkpt>
      <trkpt lat="50.60445" lon="3.36986">
        <ele>37.231416</ele>
        <time>2020-09-17T10:46:00.450Z</time>
      </trkpt>
      <trkpt lat="50.60445" lon="3.36969">
        <ele>37.421004</ele>
        <time>2020-09-17T10:46:02.717Z</time>
      </trkpt>
      <trkpt lat="50.60446" lon="3.36958">
        <ele>37.534068</ele>
        <time>2020-09-17T10:46:04.093Z</time>
      </trkpt>
      <trkpt lat="50.60441" lon="3.36956">
        <ele>37.626458</ele>
        <time>2020-09-17T10:46:05.432Z</time>
      </trkpt>
      <trkpt lat="50.6044" lon="3.36968">
        <ele>37.749274</ele>
        <time>2020-09-17T10:46:06.889Z</time>
      </trkpt>
      <trkpt lat="50.60439" lon="3.37027">
        <ele>38.401359</ele>
        <time>2020-09-17T10:46:14.767Z</time>
      </trkpt>
      <trkpt lat="50.60444" lon="3.37074">
        <ele>38.913925</ele>
        <time>2020-09-17T10:46:21.065Z</time>
      </trkpt>
      <trkpt lat="50.60434" lon="3.3708">
        <ele>39.09247</ele>
        <time>2020-09-17T10:46:24.201Z</time>
      </trkpt>
      <trkpt lat="50.60416" lon="3.37094">
        <ele>39.423372</ele>
        <time>2020-09-17T10:46:29.457Z</time>
      </trkpt>
      <trkpt lat="50.60251" lon="3.37324">
        <ele>42.940515</ele>
        <time>2020-09-17T10:47:29.230Z</time>
      </trkpt>
      <trkpt lat="50.60245" lon="3.37336">
        <ele>43.079323</ele>
        <time>2020-09-17T10:47:31.644Z</time>
      </trkpt>
      <trkpt lat="50.60109" lon="3.3754">
        <ele>45.58505</ele>
        <time>2020-09-17T10:48:18.799Z</time>
      </trkpt>
      <trkpt lat="50.60105" lon="3.37547">
        <ele>45.653474</ele>
        <time>2020-09-17T10:48:20.478Z</time>
      </trkpt>
      <trkpt lat="50.60102" lon="3.37544">
        <ele>45.701546</ele>
        <time>2020-09-17T10:48:21.458Z</time>
      </trkpt>
      <trkpt lat="50.60098" lon="3.37544">
        <ele>45.7501</ele>
        <time>2020-09-17T10:48:22.380Z</time>
      </trkpt>
      <trkpt lat="50.60094" lon="3.37547">
        <ele>45.798834</ele>
        <time>2020-09-17T10:48:23.361Z</time>
      </trkpt>
      <trkpt lat="50.60092" lon="3.37551">
        <ele>45.840198</ele>
        <time>2020-09-17T10:48:24.122Z</time>
      </trkpt>
      <trkpt lat="50.60091" lon="3.37561">
        <ele>45.920912</ele>
        <time>2020-09-17T10:48:25.653Z</time>
      </trkpt>
      <trkpt lat="50.60093" lon="3.37566">
        <ele>45.961612</ele>
        <time>2020-09-17T10:48:26.410Z</time>
      </trkpt>
      <trkpt lat="50.60085" lon="3.37571">
        <ele>46.063259</ele>
        <time>2020-09-17T10:48:28.875Z</time>
      </trkpt>
      <trkpt lat="50.59961" lon="3.37761">
        <ele>47.985439</ele>
        <time>2020-09-17T10:49:11.887Z</time>
      </trkpt>
      <trkpt lat="50.59956" lon="3.37765">
        <ele>48.03815</ele>
        <time>2020-09-17T10:49:13.286Z</time>
      </trkpt>
      <trkpt lat="50.59948" lon="3.37772">
        <ele>48.144402</ele>
        <time>2020-09-17T10:49:14.873Z</time>
      </trkpt>
      <trkpt lat="50.59829" lon="3.37872">
        <ele>49.294343</ele>
        <time>2020-09-17T10:49:39.808Z</time>
      </trkpt>
      <trkpt lat="50.59825" lon="3.37876">
        <ele>49.335114</ele>
        <time>2020-09-17T10:49:40.726Z</time>
      </trkpt>
      <trkpt lat="50.59825" lon="3.37876">
        <ele>49.335114</ele>
        <time>2020-09-17T10:49:40.733Z</time>
      </trkpt>
      <trkpt lat="50.59825" lon="3.37876">
        <ele>49.335114</ele>
        <time>2020-09-17T10:49:40.740Z</time>
      </trkpt>
      <trkpt lat="50.5979" lon="3.37915">
        <ele>49.675735</ele>
        <time>2020-09-17T10:49:48.098Z</time>
      </trkpt>
      <trkpt lat="50.59718" lon="3.38002">
        <ele>49.929466</ele>
        <time>2020-09-17T10:50:03.657Z</time>
      </trkpt>
      <trkpt lat="50.5971" lon="3.38016">
        <ele>49.938663</ele>
        <time>2020-09-17T10:50:05.809Z</time>
      </trkpt>
      <trkpt lat="50.59714" lon="3.3802">
        <ele>49.942338</ele>
        <time>2020-09-17T10:50:06.537Z</time>
      </trkpt>
      <trkpt lat="50.59746" lon="3.3805">
        <ele>49.972205</ele>
        <time>2020-09-17T10:50:12.608Z</time>
      </trkpt>
      <trkpt lat="50.59869" lon="3.38139">
        <ele>49.25354</ele>
        <time>2020-09-17T10:50:29.694Z</time>
      </trkpt>
      <trkpt lat="50.59856" lon="3.38166">
        <ele>49.030146</ele>
        <time>2020-09-17T10:50:32.230Z</time>
      </trkpt>
      <trkpt lat="50.59818" lon="3.38229">
        <ele>48.459099</ele>
        <time>2020-09-17T10:50:38.869Z</time>
      </trkpt>
      <trkpt lat="50.59812" lon="3.38236">
        <ele>48.379781</ele>
        <time>2020-09-17T10:50:39.764Z</time>
      </trkpt>
      <trkpt lat="50.59753" lon="3.38333">
        <ele>47.204593</ele>
        <time>2020-09-17T10:50:49.694Z</time>
      </trkpt>
      <trkpt lat="50.59746" lon="3.38349">
        <ele>47.014064</ele>
        <time>2020-09-17T10:50:51.177Z</time>
      </trkpt>
      <trkpt lat="50.597" lon="3.38465">
        <ele>45.710725</ele>
        <time>2020-09-17T10:51:01.275Z</time>
      </trkpt>
      <trkpt lat="50.59646" lon="3.38612">
        <ele>43.459433</ele>
        <time>2020-09-17T10:51:13.068Z</time>
      </trkpt>
      <trkpt lat="50.5962" lon="3.38646">
        <ele>42.714331</ele>
        <time>2020-09-17T10:51:16.676Z</time>
      </trkpt>
      <trkpt lat="50.59572" lon="3.38708">
        <ele>41.321814</ele>
        <time>2020-09-17T10:51:23.286Z</time>
      </trkpt>
      <trkpt lat="50.5948" lon="3.38826">
        <ele>38.387038</ele>
        <time>2020-09-17T10:51:35.851Z</time>
      </trkpt>
      <trkpt lat="50.59451" lon="3.38861">
        <ele>37.479983</ele>
        <time>2020-09-17T10:51:39.740Z</time>
      </trkpt>
      <trkpt lat="50.59418" lon="3.38902">
        <ele>36.370088</ele>
        <time>2020-09-17T10:51:44.183Z</time>
      </trkpt>
      <trkpt lat="50.59405" lon="3.38917">
        <ele>35.910875</ele>
        <time>2020-09-17T10:51:45.922Z</time>
      </trkpt>
      <trkpt lat="50.59389" lon="3.38926">
        <ele>35.451299</ele>
        <time>2020-09-17T10:51:47.638Z</time>
      </trkpt>
      <trkpt lat="50.59362" lon="3.38944">
        <ele>34.636479</ele>
        <time>2020-09-17T10:51:50.684Z</time>
      </trkpt>
      <trkpt lat="50.59229" lon="3.39027">
        <ele>30.854808</ele>
        <time>2020-09-17T10:52:05.469Z</time>
      </trkpt>
      <trkpt lat="50.59092" lon="3.39122">
        <ele>27.569286</ele>
        <time>2020-09-17T10:52:21.565Z</time>
      </trkpt>
      <trkpt lat="50.58909" lon="3.39304">
        <ele>25.384855</ele>
        <time>2020-09-17T10:52:48.141Z</time>
      </trkpt>
      <trkpt lat="50.58904" lon="3.39309">
        <ele>25.355919</ele>
        <time>2020-09-17T10:52:49.148Z</time>
      </trkpt>
      <trkpt lat="50.58896" lon="3.39297">
        <ele>25.301785</ele>
        <time>2020-09-17T10:52:50.493Z</time>
      </trkpt>
      <trkpt lat="50.58865" lon="3.39224">
        <ele>25.030369</ele>
        <time>2020-09-17T10:52:58.049Z</time>
      </trkpt>
      <trkpt lat="50.58841" lon="3.39128">
        <ele>24.819379</ele>
        <time>2020-09-17T10:53:07.424Z</time>
      </trkpt>
      <trkpt lat="50.58827" lon="3.39089">
        <ele>24.895628</ele>
        <time>2020-09-17T10:53:11.645Z</time>
      </trkpt>
      <trkpt lat="50.58706" lon="3.388">
        <ele>25.589203</ele>
        <time>2020-09-17T10:53:48.188Z</time>
      </trkpt>
      <trkpt lat="50.58705" lon="3.38797">
        <ele>25.599353</ele>
        <time>2020-09-17T10:53:48.857Z</time>
      </trkpt>
      <trkpt lat="50.58705" lon="3.38797">
        <ele>25.599353</ele>
        <time>2020-09-17T10:53:48.878Z</time>
      </trkpt>
      <trkpt lat="50.58696" lon="3.38771">
        <ele>25.671954</ele>
        <time>2020-09-17T10:53:51.756Z</time>
      </trkpt>
      <trkpt lat="50.58693" lon="3.3876">
        <ele>25.700754</ele>
        <time>2020-09-17T10:53:52.953Z</time>
      </trkpt>
      <trkpt lat="50.58686" lon="3.3874">
        <ele>25.759156</ele>
        <time>2020-09-17T10:53:55.511Z</time>
      </trkpt>
      <trkpt lat="50.58676" lon="3.38696">
        <ele>25.875617</ele>
        <time>2020-09-17T10:54:00.199Z</time>
      </trkpt>
      <trkpt lat="50.58672" lon="3.38678">
        <ele>25.922859</ele>
        <time>2020-09-17T10:54:02.157Z</time>
      </trkpt>
      <trkpt lat="50.58611" lon="3.38386">
        <ele>26.240423</ele>
        <time>2020-09-17T10:54:31.862Z</time>
      </trkpt>
      <trkpt lat="50.58608" lon="3.38371">
        <ele>26.275884</ele>
        <time>2020-09-17T10:54:33.467Z</time>
      </trkpt>
      <trkpt lat="50.58589" lon="3.38281">
        <ele>26.494574</ele>
        <time>2020-09-17T10:54:43.240Z</time>
      </trkpt>
      <trkpt lat="50.58588" lon="3.38273">
        <ele>26.514031</ele>
        <time>2020-09-17T10:54:44.247Z</time>
      </trkpt>
      <trkpt lat="50.58584" lon="3.3822">
        <ele>26.636284</ele>
        <time>2020-09-17T10:54:49.839Z</time>
      </trkpt>
      <trkpt lat="50.58583" lon="3.38172">
        <ele>26.746536</ele>
        <time>2020-09-17T10:54:54.921Z</time>
      </trkpt>
      <trkpt lat="50.58586" lon="3.38134">
        <ele>26.833678</ele>
        <time>2020-09-17T10:54:59.094Z</time>
      </trkpt>
      <trkpt lat="50.58584" lon="3.38105">
        <ele>26.895419</ele>
        <time>2020-09-17T10:55:02.164Z</time>
      </trkpt>
      <trkpt lat="50.58581" lon="3.38078">
        <ele>26.942498</ele>
        <time>2020-09-17T10:55:05.135Z</time>
      </trkpt>
      <trkpt lat="50.58545" lon="3.37889">
        <ele>27.2847</ele>
        <time>2020-09-17T10:55:25.275Z</time>
      </trkpt>
      <trkpt lat="50.58519" lon="3.37832">
        <ele>27.372987</ele>
        <time>2020-09-17T10:55:31.865Z</time>
      </trkpt>
      <trkpt lat="50.58426" lon="3.37692">
        <ele>27.408881</ele>
        <time>2020-09-17T10:55:50.827Z</time>
      </trkpt>
      <trkpt lat="50.58403" lon="3.37641">
        <ele>27.424365</ele>
        <time>2020-09-17T10:55:56.813Z</time>
      </trkpt>
      <trkpt lat="50.58381" lon="3.37578">
        <ele>27.552035</ele>
        <time>2020-09-17T10:56:03.802Z</time>
      </trkpt>
      <trkpt lat="50.5833" lon="3.3739">
        <ele>27.916383</ele>
        <time>2020-09-17T10:56:24.901Z</time>
      </trkpt>
      <trkpt lat="50.58326" lon="3.37377">
        <ele>27.960159</ele>
        <time>2020-09-17T10:56:26.387Z</time>
      </trkpt>
      <trkpt lat="50.58315" lon="3.37352">
        <ele>28.076288</ele>
        <time>2020-09-17T10:56:29.594Z</time>
      </trkpt>
      <trkpt lat="50.58294" lon="3.37303">
        <ele>28.305275</ele>
        <time>2020-09-17T10:56:35.960Z</time>
      </trkpt>
      <trkpt lat="50.58268" lon="3.37241">
        <ele>28.591838</ele>
        <time>2020-09-17T10:56:44.302Z</time>
      </trkpt>
      <trkpt lat="50.58213" lon="3.37118">
        <ele>29.313803</ele>
        <time>2020-09-17T10:57:01.170Z</time>
      </trkpt>
      <trkpt lat="50.58206" lon="3.37097">
        <ele>29.483294</ele>
        <time>2020-09-17T10:57:03.864Z</time>
      </trkpt>
      <trkpt lat="50.5819" lon="3.37044">
        <ele>29.913855</ele>
        <time>2020-09-17T10:57:10.490Z</time>
      </trkpt>
      <trkpt lat="50.58139" lon="3.36931">
        <ele>30.927123</ele>
        <time>2020-09-17T10:57:28.080Z</time>
      </trkpt>
      <trkpt lat="50.58091" lon="3.36843">
        <ele>32.310714</ele>
        <time>2020-09-17T10:57:44.419Z</time>
      </trkpt>
      <trkpt lat="50.58077" lon="3.36845">
        <ele>32.597579</ele>
        <time>2020-09-17T10:57:47.980Z</time>
      </trkpt>
      <trkpt lat="50.58058" lon="3.36865">
        <ele>33.079798</ele>
        <time>2020-09-17T10:57:53.120Z</time>
      </trkpt>
      <trkpt lat="50.57998" lon="3.36973">
        <ele>34.91116</ele>
        <time>2020-09-17T10:58:15.478Z</time>
      </trkpt>
      <trkpt lat="50.57914" lon="3.37019">
        <ele>36.21282</ele>
        <time>2020-09-17T10:58:35.135Z</time>
      </trkpt>
      <trkpt lat="50.57825" lon="3.37047">
        <ele>37.505995</ele>
        <time>2020-09-17T10:58:52.323Z</time>
      </trkpt>
      <trkpt lat="50.57811" lon="3.37058">
        <ele>37.654887</ele>
        <time>2020-09-17T10:58:54.919Z</time>
      </trkpt>
      <trkpt lat="50.5777" lon="3.37089">
        <ele>38.07073</ele>
        <time>2020-09-17T10:59:02.575Z</time>
      </trkpt>
      <trkpt lat="50.57731" lon="3.3712">
        <ele>38.477284</ele>
        <time>2020-09-17T10:59:10.336Z</time>
      </trkpt>
      <trkpt lat="50.5769" lon="3.37121">
        <ele>38.860478</ele>
        <time>2020-09-17T10:59:17.942Z</time>
      </trkpt>
      <trkpt lat="50.5765" lon="3.37084">
        <ele>39.551445</ele>
        <time>2020-09-17T10:59:27.111Z</time>
      </trkpt>
      <trkpt lat="50.57638" lon="3.37069">
        <ele>39.909923</ele>
        <time>2020-09-17T10:59:30.703Z</time>
      </trkpt>
      <trkpt lat="50.57559" lon="3.3697">
        <ele>42.164121</ele>
        <time>2020-09-17T10:59:55.325Z</time>
      </trkpt>
      <trkpt lat="50.57434" lon="3.36974">
        <ele>44.641429</ele>
        <time>2020-09-17T11:00:27.858Z</time>
      </trkpt>
      <trkpt lat="50.56851" lon="3.37329">
        <ele>55.837711</ele>
        <time>2020-09-17T11:02:42.576Z</time>
      </trkpt>
      <trkpt lat="50.56804" lon="3.37343">
        <ele>56.569695</ele>
        <time>2020-09-17T11:02:52.197Z</time>
      </trkpt>
      <trkpt lat="50.56673" lon="3.37296">
        <ele>58.580993</ele>
        <time>2020-09-17T11:03:20.039Z</time>
      </trkpt>
      <trkpt lat="50.5634" lon="3.37232">
        <ele>63.863876</ele>
        <time>2020-09-17T11:04:32.855Z</time>
      </trkpt>
      <trkpt lat="50.56302" lon="3.37242">
        <ele>64.363503</ele>
        <time>2020-09-17T11:04:39.692Z</time>
      </trkpt>
      <trkpt lat="50.56298" lon="3.37244">
        <ele>64.364652</ele>
        <time>2020-09-17T11:04:40.349Z</time>
      </trkpt>
      <trkpt lat="50.56289" lon="3.37265">
        <ele>64.36964</ele>
        <time>2020-09-17T11:04:42.935Z</time>
      </trkpt>
      <trkpt lat="50.56281" lon="3.37281">
        <ele>64.373615</ele>
        <time>2020-09-17T11:04:45.105Z</time>
      </trkpt>
      <trkpt lat="50.56275" lon="3.37295">
        <ele>64.377052</ele>
        <time>2020-09-17T11:04:46.761Z</time>
      </trkpt>
      <trkpt lat="50.56239" lon="3.37368">
        <ele>64.395265</ele>
        <time>2020-09-17T11:04:55.556Z</time>
      </trkpt>
      <trkpt lat="50.56222" lon="3.37356">
        <ele>64.401078</ele>
        <time>2020-09-17T11:04:59.069Z</time>
      </trkpt>
      <trkpt lat="50.56213" lon="3.37334">
        <ele>64.406294</ele>
        <time>2020-09-17T11:05:02.414Z</time>
      </trkpt>
      <trkpt lat="50.56206" lon="3.3727">
        <ele>64.39098</ele>
        <time>2020-09-17T11:05:10.249Z</time>
      </trkpt>
      <trkpt lat="50.56187" lon="3.37229">
        <ele>64.177676</ele>
        <time>2020-09-17T11:05:16.281Z</time>
      </trkpt>
      <trkpt lat="50.55917" lon="3.36852">
        <ele>60.279142</ele>
        <time>2020-09-17T11:06:20.995Z</time>
      </trkpt>
      <trkpt lat="50.55908" lon="3.36848">
        <ele>59.956343</ele>
        <time>2020-09-17T11:06:22.383Z</time>
      </trkpt>
      <trkpt lat="50.559" lon="3.36847">
        <ele>59.655877</ele>
        <time>2020-09-17T11:06:23.684Z</time>
      </trkpt>
      <trkpt lat="50.55896" lon="3.36853">
        <ele>59.474857</ele>
        <time>2020-09-17T11:06:24.281Z</time>
      </trkpt>
      <trkpt lat="50.55836" lon="3.36941">
        <ele>56.458599</ele>
        <time>2020-09-17T11:06:35.725Z</time>
      </trkpt>
      <trkpt lat="50.55792" lon="3.36984">
        <ele>54.395462</ele>
        <time>2020-09-17T11:06:42.722Z</time>
      </trkpt>
      <trkpt lat="50.55773" lon="3.36989">
        <ele>53.513819</ele>
        <time>2020-09-17T11:06:45.085Z</time>
      </trkpt>
      <trkpt lat="50.557" lon="3.36994">
        <ele>49.992599</ele>
        <time>2020-09-17T11:06:55.036Z</time>
      </trkpt>
      <trkpt lat="50.5568" lon="3.36995">
        <ele>49.044844</ele>
        <time>2020-09-17T11:06:57.741Z</time>
      </trkpt>
      <trkpt lat="50.55552" lon="3.36999">
        <ele>44.324052</ele>
        <time>2020-09-17T11:07:15.772Z</time>
      </trkpt>
      <trkpt lat="50.55493" lon="3.37001">
        <ele>42.630827</ele>
        <time>2020-09-17T11:07:24.738Z</time>
      </trkpt>
      <trkpt lat="50.55452" lon="3.36981">
        <ele>41.421733</ele>
        <time>2020-09-17T11:07:31.427Z</time>
      </trkpt>
      <trkpt lat="50.55396" lon="3.36927">
        <ele>40.960418</ele>
        <time>2020-09-17T11:07:42.511Z</time>
      </trkpt>
      <trkpt lat="50.55293" lon="3.36855">
        <ele>40.330497</ele>
        <time>2020-09-17T11:08:04.619Z</time>
      </trkpt>
      <trkpt lat="50.55172" lon="3.36717">
        <ele>40.924069</ele>
        <time>2020-09-17T11:08:38.926Z</time>
      </trkpt>
      <trkpt lat="50.55154" lon="3.36706">
        <ele>41.006483</ele>
        <time>2020-09-17T11:08:43.268Z</time>
      </trkpt>
      <trkpt lat="50.55108" lon="3.36678">
        <ele>40.844029</ele>
        <time>2020-09-17T11:08:53.328Z</time>
      </trkpt>
      <trkpt lat="50.55073" lon="3.36656">
        <ele>40.586501</ele>
        <time>2020-09-17T11:09:00.525Z</time>
      </trkpt>
      <trkpt lat="50.54849" lon="3.36518">
        <ele>38.19436</ele>
        <time>2020-09-17T11:09:41.453Z</time>
      </trkpt>
      <trkpt lat="50.54799" lon="3.36504">
        <ele>37.574527</ele>
        <time>2020-09-17T11:09:49.927Z</time>
      </trkpt>
      <trkpt lat="50.54791" lon="3.365">
        <ele>37.516127</ele>
        <time>2020-09-17T11:09:51.285Z</time>
      </trkpt>
      <trkpt lat="50.54787" lon="3.36512">
        <ele>37.460909</ele>
        <time>2020-09-17T11:09:52.156Z</time>
      </trkpt>
      <trkpt lat="50.54755" lon="3.36616">
        <ele>36.950771</ele>
        <time>2020-09-17T11:10:00.899Z</time>
      </trkpt>
      <trkpt lat="50.54743" lon="3.36657">
        <ele>36.751512</ele>
        <time>2020-09-17T11:10:04.638Z</time>
      </trkpt>
      <trkpt lat="50.54735" lon="3.36696">
        <ele>36.572334</ele>
        <time>2020-09-17T11:10:08.493Z</time>
      </trkpt>
      <trkpt lat="50.54734" lon="3.36706">
        <ele>36.528403</ele>
        <time>2020-09-17T11:10:09.320Z</time>
      </trkpt>
      <trkpt lat="50.54738" lon="3.36717">
        <ele>36.471919</ele>
        <time>2020-09-17T11:10:10.367Z</time>
      </trkpt>
      <trkpt lat="50.5475" lon="3.36749">
        <ele>36.395489</ele>
        <time>2020-09-17T11:10:14.235Z</time>
      </trkpt>
      <trkpt lat="50.54752" lon="3.36795">
        <ele>36.674563</ele>
        <time>2020-09-17T11:10:20.141Z</time>
      </trkpt>
      <trkpt lat="50.54753" lon="3.36816">
        <ele>36.799802</ele>
        <time>2020-09-17T11:10:22.221Z</time>
      </trkpt>
      <trkpt lat="50.54755" lon="3.36918">
        <ele>37.400911</ele>
        <time>2020-09-17T11:10:35.102Z</time>
      </trkpt>
      <trkpt lat="50.5476" lon="3.36985">
        <ele>37.804556</ele>
        <time>2020-09-17T11:10:43.399Z</time>
      </trkpt>
      <trkpt lat="50.54763" lon="3.37012">
        <ele>37.963679</ele>
        <time>2020-09-17T11:10:47.373Z</time>
      </trkpt>
      <trkpt lat="50.54805" lon="3.37182">
        <ele>37.812406</ele>
        <time>2020-09-17T11:11:06.604Z</time>
      </trkpt>
      <trkpt lat="50.54822" lon="3.37263">
        <ele>37.703551</ele>
        <time>2020-09-17T11:11:13.291Z</time>
      </trkpt>
      <trkpt lat="50.54845" lon="3.37372">
        <ele>36.729349</ele>
        <time>2020-09-17T11:11:21.406Z</time>
      </trkpt>
      <trkpt lat="50.54848" lon="3.37387">
        <ele>36.562662</ele>
        <time>2020-09-17T11:11:22.448Z</time>
      </trkpt>
      <trkpt lat="50.54871" lon="3.37486">
        <ele>35.442819</ele>
        <time>2020-09-17T11:11:30.012Z</time>
      </trkpt>
      <trkpt lat="50.54876" lon="3.37525">
        <ele>35.019647</ele>
        <time>2020-09-17T11:11:32.928Z</time>
      </trkpt>
      <trkpt lat="50.54875" lon="3.37542">
        <ele>34.83322</ele>
        <time>2020-09-17T11:11:34.162Z</time>
      </trkpt>
      <trkpt lat="50.54872" lon="3.37565">
        <ele>34.609129</ele>
        <time>2020-09-17T11:11:35.829Z</time>
      </trkpt>
      <trkpt lat="50.54859" lon="3.37594">
        <ele>34.331252</ele>
        <time>2020-09-17T11:11:38.383Z</time>
      </trkpt>
      <trkpt lat="50.54832" lon="3.37629">
        <ele>33.894704</ele>
        <time>2020-09-17T11:11:42.515Z</time>
      </trkpt>
      <trkpt lat="50.54795" lon="3.37639">
        <ele>33.430482</ele>
        <time>2020-09-17T11:11:46.988Z</time>
      </trkpt>
      <trkpt lat="50.54777" lon="3.37652">
        <ele>33.174883</ele>
        <time>2020-09-17T11:11:49.469Z</time>
      </trkpt>
      <trkpt lat="50.5477" lon="3.37668">
        <ele>33.023629</ele>
        <time>2020-09-17T11:11:50.934Z</time>
      </trkpt>
      <trkpt lat="50.54775" lon="3.37799">
        <ele>32.13274</ele>
        <time>2020-09-17T11:12:01.168Z</time>
      </trkpt>
      <trkpt lat="50.54776" lon="3.37823">
        <ele>32.000147</ele>
        <time>2020-09-17T11:12:03.124Z</time>
      </trkpt>
      <trkpt lat="50.54778" lon="3.37879">
        <ele>31.706168</ele>
        <time>2020-09-17T11:12:07.418Z</time>
      </trkpt>
      <trkpt lat="50.548" lon="3.38364">
        <ele>29.886707</ele>
        <time>2020-09-17T11:12:47.604Z</time>
      </trkpt>
      <trkpt lat="50.54809" lon="3.38648">
        <ele>30.209651</ele>
        <time>2020-09-17T11:13:15.518Z</time>
      </trkpt>
      <trkpt lat="50.54809" lon="3.38651">
        <ele>30.229186</ele>
        <time>2020-09-17T11:13:16.035Z</time>
      </trkpt>
      <trkpt lat="50.54797" lon="3.38748">
        <ele>30.767905</ele>
        <time>2020-09-17T11:13:27.686Z</time>
      </trkpt>
      <trkpt lat="50.54781" lon="3.38883">
        <ele>31.49941</ele>
        <time>2020-09-17T11:13:45.141Z</time>
      </trkpt>
      <trkpt lat="50.54779" lon="3.38893">
        <ele>31.542876</ele>
        <time>2020-09-17T11:13:46.382Z</time>
      </trkpt>
      <trkpt lat="50.54777" lon="3.38912">
        <ele>31.626685</ele>
        <time>2020-09-17T11:13:48.775Z</time>
      </trkpt>
      <trkpt lat="50.54774" lon="3.38926">
        <ele>31.693763</ele>
        <time>2020-09-17T11:13:50.674Z</time>
      </trkpt>
      <trkpt lat="50.54767" lon="3.38926">
        <ele>31.739784</ele>
        <time>2020-09-17T11:13:52.058Z</time>
      </trkpt>
      <trkpt lat="50.5468" lon="3.38915">
        <ele>32.339253</ele>
        <time>2020-09-17T11:14:07.461Z</time>
      </trkpt>
      <trkpt lat="50.54657" lon="3.38912">
        <ele>32.495215</ele>
        <time>2020-09-17T11:14:11.258Z</time>
      </trkpt>
      <trkpt lat="50.54608" lon="3.38907">
        <ele>32.585468</ele>
        <time>2020-09-17T11:14:18.797Z</time>
      </trkpt>
      <trkpt lat="50.54599" lon="3.38901">
        <ele>32.550901</ele>
        <time>2020-09-17T11:14:20.229Z</time>
      </trkpt>
      <trkpt lat="50.54594" lon="3.38895">
        <ele>32.526723</ele>
        <time>2020-09-17T11:14:21.196Z</time>
      </trkpt>
      <trkpt lat="50.54582" lon="3.38894">
        <ele>32.48557</ele>
        <time>2020-09-17T11:14:22.711Z</time>
      </trkpt>
      <trkpt lat="50.5453" lon="3.38864">
        <ele>32.291961</ele>
        <time>2020-09-17T11:14:30.118Z</time>
      </trkpt>
      <trkpt lat="50.5449" lon="3.38839">
        <ele>32.139084</ele>
        <time>2020-09-17T11:14:35.740Z</time>
      </trkpt>
      <trkpt lat="50.54449" lon="3.38806">
        <ele>31.915843</ele>
        <time>2020-09-17T11:14:41.608Z</time>
      </trkpt>
      <trkpt lat="50.54439" lon="3.38799">
        <ele>31.838581</ele>
        <time>2020-09-17T11:14:43.044Z</time>
      </trkpt>
      <trkpt lat="50.54426" lon="3.3879">
        <ele>31.73954</ele>
        <time>2020-09-17T11:14:44.949Z</time>
      </trkpt>
      <trkpt lat="50.54392" lon="3.38764">
        <ele>31.467234</ele>
        <time>2020-09-17T11:14:50.127Z</time>
      </trkpt>
      <trkpt lat="50.54351" lon="3.38735">
        <ele>31.151992</ele>
        <time>2020-09-17T11:14:55.979Z</time>
      </trkpt>
      <trkpt lat="50.54342" lon="3.38722">
        <ele>31.06322</ele>
        <time>2020-09-17T11:14:57.545Z</time>
      </trkpt>
      <trkpt lat="50.54341" lon="3.3872">
        <ele>31.052115</ele>
        <time>2020-09-17T11:14:57.779Z</time>
      </trkpt>
      <trkpt lat="50.5432" lon="3.38682">
        <ele>30.822651</ele>
        <time>2020-09-17T11:15:01.633Z</time>
      </trkpt>
      <trkpt lat="50.54305" lon="3.38652">
        <ele>30.531865</ele>
        <time>2020-09-17T11:15:04.697Z</time>
      </trkpt>
      <trkpt lat="50.54269" lon="3.38651">
        <ele>30.003145</ele>
        <time>2020-09-17T11:15:08.839Z</time>
      </trkpt>
      <trkpt lat="50.54244" lon="3.38657">
        <ele>29.627086</ele>
        <time>2020-09-17T11:15:11.801Z</time>
      </trkpt>
      <trkpt lat="50.54236" lon="3.38658">
        <ele>29.507621</ele>
        <time>2020-09-17T11:15:12.679Z</time>
      </trkpt>
      <trkpt lat="50.5423" lon="3.38664">
        <ele>29.409053</ele>
        <time>2020-09-17T11:15:13.409Z</time>
      </trkpt>
      <trkpt lat="50.54229" lon="3.38664">
        <ele>29.402055</ele>
        <time>2020-09-17T11:15:13.475Z</time>
      </trkpt>
      <trkpt lat="50.54225" lon="3.38668">
        <ele>29.325739</ele>
        <time>2020-09-17T11:15:14.011Z</time>
      </trkpt>
      <trkpt lat="50.54212" lon="3.38685">
        <ele>29.076815</ele>
        <time>2020-09-17T11:15:16.123Z</time>
      </trkpt>
      <trkpt lat="50.54202" lon="3.38702">
        <ele>28.858751</ele>
        <time>2020-09-17T11:15:17.736Z</time>
      </trkpt>
      <trkpt lat="50.54197" lon="3.3871">
        <ele>28.749373</ele>
        <time>2020-09-17T11:15:18.524Z</time>
      </trkpt>
      <trkpt lat="50.54158" lon="3.38766">
        <ele>28.005869</ele>
        <time>2020-09-17T11:15:24.618Z</time>
      </trkpt>
      <trkpt lat="50.5415" lon="3.38777">
        <ele>27.882626</ele>
        <time>2020-09-17T11:15:25.756Z</time>
      </trkpt>
      <trkpt lat="50.54137" lon="3.38792">
        <ele>27.69356</ele>
        <time>2020-09-17T11:15:28.434Z</time>
      </trkpt>
      <trkpt lat="50.54101" lon="3.38814">
        <ele>27.239176</ele>
        <time>2020-09-17T11:15:34.869Z</time>
      </trkpt>
      <trkpt lat="50.54047" lon="3.38819">
        <ele>26.606912</ele>
        <time>2020-09-17T11:15:44.136Z</time>
      </trkpt>
      <trkpt lat="50.53964" lon="3.38819">
        <ele>25.822338</ele>
        <time>2020-09-17T11:15:59.128Z</time>
      </trkpt>
      <trkpt lat="50.53881" lon="3.38822">
        <ele>25.338485</ele>
        <time>2020-09-17T11:16:14.240Z</time>
      </trkpt>
      <trkpt lat="50.53866" lon="3.38823">
        <ele>25.25268</ele>
        <time>2020-09-17T11:16:16.859Z</time>
      </trkpt>
      <trkpt lat="50.53794" lon="3.38812">
        <ele>24.979107</ele>
        <time>2020-09-17T11:16:30.516Z</time>
      </trkpt>
      <trkpt lat="50.53776" lon="3.38807">
        <ele>25.000456</ele>
        <time>2020-09-17T11:16:34.183Z</time>
      </trkpt>
      <trkpt lat="50.5372" lon="3.38767">
        <ele>25.070036</ele>
        <time>2020-09-17T11:16:46.330Z</time>
      </trkpt>
      <trkpt lat="50.53717" lon="3.38765">
        <ele>25.073917</ele>
        <time>2020-09-17T11:16:46.972Z</time>
      </trkpt>
      <trkpt lat="50.53704" lon="3.38755">
        <ele>25.090029</ele>
        <time>2020-09-17T11:16:50.040Z</time>
      </trkpt>
      <trkpt lat="50.53668" lon="3.38721">
        <ele>25.138077</ele>
        <time>2020-09-17T11:16:59.013Z</time>
      </trkpt>
      <trkpt lat="50.53575" lon="3.38659">
        <ele>26.037664</ele>
        <time>2020-09-17T11:17:23.070Z</time>
      </trkpt>
      <trkpt lat="50.53554" lon="3.38653">
        <ele>26.266124</ele>
        <time>2020-09-17T11:17:28.490Z</time>
      </trkpt>
      <trkpt lat="50.53532" lon="3.38657">
        <ele>26.497038</ele>
        <time>2020-09-17T11:17:33.937Z</time>
      </trkpt>
      <trkpt lat="50.53513" lon="3.38664">
        <ele>26.701481</ele>
        <time>2020-09-17T11:17:38.979Z</time>
      </trkpt>
      <trkpt lat="50.53502" lon="3.3867">
        <ele>26.824353</ele>
        <time>2020-09-17T11:17:41.293Z</time>
      </trkpt>
      <trkpt lat="50.53406" lon="3.38717">
        <ele>28.136618</ele>
        <time>2020-09-17T11:18:02.306Z</time>
      </trkpt>
      <trkpt lat="50.53359" lon="3.38741">
        <ele>28.810103</ele>
        <time>2020-09-17T11:18:12.576Z</time>
      </trkpt>
      <trkpt lat="50.53149" lon="3.38844">
        <ele>31.216065</ele>
        <time>2020-09-17T11:18:54.471Z</time>
      </trkpt>
      <trkpt lat="50.53107" lon="3.38864">
        <ele>31.592835</ele>
        <time>2020-09-17T11:19:02.369Z</time>
      </trkpt>
      <trkpt lat="50.53091" lon="3.3887">
        <ele>31.719242</ele>
        <time>2020-09-17T11:19:05.198Z</time>
      </trkpt>
      <trkpt lat="50.53074" lon="3.38873">
        <ele>31.854099</ele>
        <time>2020-09-17T11:19:08.195Z</time>
      </trkpt>
      <trkpt lat="50.53068" lon="3.38875">
        <ele>31.906787</ele>
        <time>2020-09-17T11:19:09.385Z</time>
      </trkpt>
      <trkpt lat="50.53044" lon="3.38875">
        <ele>32.092723</ele>
        <time>2020-09-17T11:19:13.500Z</time>
      </trkpt>
      <trkpt lat="50.52853" lon="3.3885">
        <ele>33.536637</ele>
        <time>2020-09-17T11:19:48.024Z</time>
      </trkpt>
      <trkpt lat="50.52848" lon="3.3885">
        <ele>33.57658</ele>
        <time>2020-09-17T11:19:49.215Z</time>
      </trkpt>
      <trkpt lat="50.52843" lon="3.38849">
        <ele>33.612121</ele>
        <time>2020-09-17T11:19:50.139Z</time>
      </trkpt>
      <trkpt lat="50.52811" lon="3.38845">
        <ele>33.843612</ele>
        <time>2020-09-17T11:19:55.586Z</time>
      </trkpt>
      <trkpt lat="50.52782" lon="3.38841">
        <ele>34.053906</ele>
        <time>2020-09-17T11:20:00.294Z</time>
      </trkpt>
      <trkpt lat="50.52779" lon="3.38841">
        <ele>34.072097</ele>
        <time>2020-09-17T11:20:00.789Z</time>
      </trkpt>
      <trkpt lat="50.52738" lon="3.38835">
        <ele>34.376491</ele>
        <time>2020-09-17T11:20:07.929Z</time>
      </trkpt>
      <trkpt lat="50.52719" lon="3.38832">
        <ele>34.514186</ele>
        <time>2020-09-17T11:20:11.137Z</time>
      </trkpt>
      <trkpt lat="50.52702" lon="3.38829">
        <ele>34.642008</ele>
        <time>2020-09-17T11:20:14.414Z</time>
      </trkpt>
      <trkpt lat="50.5267" lon="3.38821">
        <ele>34.880248</ele>
        <time>2020-09-17T11:20:20.086Z</time>
      </trkpt>
      <trkpt lat="50.52631" lon="3.38811">
        <ele>35.167416</ele>
        <time>2020-09-17T11:20:26.981Z</time>
      </trkpt>
      <trkpt lat="50.52599" lon="3.38802">
        <ele>35.417305</ele>
        <time>2020-09-17T11:20:32.923Z</time>
      </trkpt>
      <trkpt lat="50.52565" lon="3.38793">
        <ele>35.823061</ele>
        <time>2020-09-17T11:20:39.499Z</time>
      </trkpt>
      <trkpt lat="50.52443" lon="3.38762">
        <ele>37.246585</ele>
        <time>2020-09-17T11:21:03.964Z</time>
      </trkpt>
      <trkpt lat="50.52371" lon="3.38739">
        <ele>38.141888</ele>
        <time>2020-09-17T11:21:18.692Z</time>
      </trkpt>
      <trkpt lat="50.52365" lon="3.38739">
        <ele>38.210562</ele>
        <time>2020-09-17T11:21:19.785Z</time>
      </trkpt>
      <trkpt lat="50.52351" lon="3.38737">
        <ele>38.389136</ele>
        <time>2020-09-17T11:21:22.668Z</time>
      </trkpt>
      <trkpt lat="50.52273" lon="3.3878">
        <ele>39.42311</ele>
        <time>2020-09-17T11:21:38.786Z</time>
      </trkpt>
      <trkpt lat="50.52225" lon="3.38828">
        <ele>40.133625</ele>
        <time>2020-09-17T11:21:50.104Z</time>
      </trkpt>
      <trkpt lat="50.52208" lon="3.38832">
        <ele>40.348296</ele>
        <time>2020-09-17T11:21:53.963Z</time>
      </trkpt>
      <trkpt lat="50.52191" lon="3.38823">
        <ele>40.564798</ele>
        <time>2020-09-17T11:21:57.312Z</time>
      </trkpt>
      <trkpt lat="50.52135" lon="3.38749">
        <ele>41.48813</ele>
        <time>2020-09-17T11:22:12.183Z</time>
      </trkpt>
      <trkpt lat="50.52098" lon="3.38733">
        <ele>41.961293</ele>
        <time>2020-09-17T11:22:19.445Z</time>
      </trkpt>
      <trkpt lat="50.52092" lon="3.38736">
        <ele>41.991066</ele>
        <time>2020-09-17T11:22:20.931Z</time>
      </trkpt>
      <trkpt lat="50.52089" lon="3.38742">
        <ele>42.013663</ele>
        <time>2020-09-17T11:22:21.851Z</time>
      </trkpt>
      <trkpt lat="50.52082" lon="3.3878">
        <ele>42.137129</ele>
        <time>2020-09-17T11:22:26.270Z</time>
      </trkpt>
      <trkpt lat="50.52066" lon="3.38868">
        <ele>42.416854</ele>
        <time>2020-09-17T11:22:36.629Z</time>
      </trkpt>
      <trkpt lat="50.52063" lon="3.38892">
        <ele>42.490257</ele>
        <time>2020-09-17T11:22:39.161Z</time>
      </trkpt>
      <trkpt lat="50.52056" lon="3.38917">
        <ele>42.575189</ele>
        <time>2020-09-17T11:22:42.182Z</time>
      </trkpt>
      <trkpt lat="50.52052" lon="3.3892">
        <ele>42.594103</ele>
        <time>2020-09-17T11:22:42.653Z</time>
      </trkpt>
      <trkpt lat="50.52043" lon="3.38924">
        <ele>42.641718</ele>
        <time>2020-09-17T11:22:44.092Z</time>
      </trkpt>
      <trkpt lat="50.52026" lon="3.38922">
        <ele>42.723807</ele>
        <time>2020-09-17T11:22:47.048Z</time>
      </trkpt>
      <trkpt lat="50.52009" lon="3.38919">
        <ele>42.803332</ele>
        <time>2020-09-17T11:22:49.215Z</time>
      </trkpt>
      <trkpt lat="50.51989" lon="3.38918">
        <ele>42.717412</ele>
        <time>2020-09-17T11:22:52.070Z</time>
      </trkpt>
      <trkpt lat="50.51919" lon="3.3893">
        <ele>42.269454</ele>
        <time>2020-09-17T11:23:01.346Z</time>
      </trkpt>
      <trkpt lat="50.51913" lon="3.38937">
        <ele>42.223839</ele>
        <time>2020-09-17T11:23:02.235Z</time>
      </trkpt>
      <trkpt lat="50.51908" lon="3.38942">
        <ele>42.18868</ele>
        <time>2020-09-17T11:23:02.905Z</time>
      </trkpt>
      <trkpt lat="50.51902" lon="3.38956">
        <ele>42.120279</ele>
        <time>2020-09-17T11:23:04.406Z</time>
      </trkpt>
      <trkpt lat="50.5188" lon="3.39072">
        <ele>41.608549</ele>
        <time>2020-09-17T11:23:14.064Z</time>
      </trkpt>
      <trkpt lat="50.5184" lon="3.39175">
        <ele>40.895481</ele>
        <time>2020-09-17T11:23:23.306Z</time>
      </trkpt>
      <trkpt lat="50.51817" lon="3.39229">
        <ele>40.506727</ele>
        <time>2020-09-17T11:23:28.462Z</time>
      </trkpt>
      <trkpt lat="50.51783" lon="3.39311">
        <ele>39.953197</ele>
        <time>2020-09-17T11:23:36.273Z</time>
      </trkpt>
      <trkpt lat="50.51708" lon="3.39277">
        <ele>39.482834</ele>
        <time>2020-09-17T11:23:46.236Z</time>
      </trkpt>
      <trkpt lat="50.51676" lon="3.39263">
        <ele>39.286263</ele>
        <time>2020-09-17T11:23:50.584Z</time>
      </trkpt>
      <trkpt lat="50.51668" lon="3.39259">
        <ele>39.232554</ele>
        <time>2020-09-17T11:23:51.761Z</time>
      </trkpt>
      <trkpt lat="50.51639" lon="3.39244">
        <ele>39.051963</ele>
        <time>2020-09-17T11:23:55.814Z</time>
      </trkpt>
      <trkpt lat="50.51546" lon="3.39196">
        <ele>38.661665</ele>
        <time>2020-09-17T11:24:09.097Z</time>
      </trkpt>
      <trkpt lat="50.51471" lon="3.39157">
        <ele>38.395322</ele>
        <time>2020-09-17T11:24:19.756Z</time>
      </trkpt>
      <trkpt lat="50.5137" lon="3.39108">
        <ele>38.193118</ele>
        <time>2020-09-17T11:24:34.918Z</time>
      </trkpt>
      <trkpt lat="50.51366" lon="3.39106">
        <ele>38.187831</ele>
        <time>2020-09-17T11:24:35.473Z</time>
      </trkpt>
      <trkpt lat="50.51184" lon="3.39018">
        <ele>37.54629</ele>
        <time>2020-09-17T11:25:02.918Z</time>
      </trkpt>
      <trkpt lat="50.51178" lon="3.39019">
        <ele>37.514315</ele>
        <time>2020-09-17T11:25:03.654Z</time>
      </trkpt>
      <trkpt lat="50.51088" lon="3.39051">
        <ele>36.902104</ele>
        <time>2020-09-17T11:25:15.088Z</time>
      </trkpt>
      <trkpt lat="50.50931" lon="3.39065">
        <ele>34.650227</ele>
        <time>2020-09-17T11:25:33.077Z</time>
      </trkpt>
      <trkpt lat="50.50883" lon="3.39087">
        <ele>34.099032</ele>
        <time>2020-09-17T11:25:38.899Z</time>
      </trkpt>
      <trkpt lat="50.50846" lon="3.39115">
        <ele>33.670089</ele>
        <time>2020-09-17T11:25:43.841Z</time>
      </trkpt>
      <trkpt lat="50.50846" lon="3.39136">
        <ele>33.533409</ele>
        <time>2020-09-17T11:25:46.207Z</time>
      </trkpt>
      <trkpt lat="50.50873" lon="3.39211">
        <ele>32.960063</ele>
        <time>2020-09-17T11:25:55.844Z</time>
      </trkpt>
      <trkpt lat="50.50874" lon="3.39233">
        <ele>32.816241</ele>
        <time>2020-09-17T11:25:58.342Z</time>
      </trkpt>
      <trkpt lat="50.50868" lon="3.39261">
        <ele>32.649693</ele>
        <time>2020-09-17T11:26:01.797Z</time>
      </trkpt>
      <trkpt lat="50.50817" lon="3.39324">
        <ele>32.451139</ele>
        <time>2020-09-17T11:26:14.052Z</time>
      </trkpt>
      <trkpt lat="50.50791" lon="3.39343">
        <ele>32.363518</ele>
        <time>2020-09-17T11:26:19.678Z</time>
      </trkpt>
      <trkpt lat="50.50803" lon="3.39403">
        <ele>32.239797</ele>
        <time>2020-09-17T11:26:27.790Z</time>
      </trkpt>
      <trkpt lat="50.50805" lon="3.3942">
        <ele>32.206423</ele>
        <time>2020-09-17T11:26:29.866Z</time>
      </trkpt>
      <trkpt lat="50.50816" lon="3.39485">
        <ele>32.080431</ele>
        <time>2020-09-17T11:26:38.276Z</time>
      </trkpt>
      <trkpt lat="50.50827" lon="3.39557">
        <ele>31.959811</ele>
        <time>2020-09-17T11:26:47.373Z</time>
      </trkpt>
      <trkpt lat="50.50829" lon="3.39568">
        <ele>31.941617</ele>
        <time>2020-09-17T11:26:48.823Z</time>
      </trkpt>
      <trkpt lat="50.50831" lon="3.39579">
        <ele>31.923422</ele>
        <time>2020-09-17T11:26:50.165Z</time>
      </trkpt>
      <trkpt lat="50.50835" lon="3.39605">
        <ele>31.878808</ele>
        <time>2020-09-17T11:26:53.561Z</time>
      </trkpt>
      <trkpt lat="50.50844" lon="3.3965">
        <ele>31.802543</ele>
        <time>2020-09-17T11:26:59.343Z</time>
      </trkpt>
      <trkpt lat="50.50848" lon="3.39702">
        <ele>31.718374</ele>
        <time>2020-09-17T11:27:05.756Z</time>
      </trkpt>
      <trkpt lat="50.50845" lon="3.3981">
        <ele>31.418642</ele>
        <time>2020-09-17T11:27:18.775Z</time>
      </trkpt>
      <trkpt lat="50.50841" lon="3.40038">
        <ele>30.620351</ele>
        <time>2020-09-17T11:27:45.362Z</time>
      </trkpt>
      <trkpt lat="50.50845" lon="3.40083">
        <ele>30.428285</ele>
        <time>2020-09-17T11:27:50.709Z</time>
      </trkpt>
      <trkpt lat="50.50855" lon="3.40122">
        <ele>30.247382</ele>
        <time>2020-09-17T11:27:55.646Z</time>
      </trkpt>
      <trkpt lat="50.50877" lon="3.40191">
        <ele>29.922705</ele>
        <time>2020-09-17T11:28:04.537Z</time>
      </trkpt>
      <trkpt lat="50.50896" lon="3.40248">
        <ele>29.652239</ele>
        <time>2020-09-17T11:28:11.887Z</time>
      </trkpt>
      <trkpt lat="50.50925" lon="3.40335">
        <ele>29.183696</ele>
        <time>2020-09-17T11:28:23.031Z</time>
      </trkpt>
      <trkpt lat="50.5111" lon="3.40911">
        <ele>25.801461</ele>
        <time>2020-09-17T11:29:35.960Z</time>
      </trkpt>
      <trkpt lat="50.5116" lon="3.41081">
        <ele>24.810255</ele>
        <time>2020-09-17T11:29:57.263Z</time>
      </trkpt>
      <trkpt lat="50.51195" lon="3.412">
        <ele>24.096421</ele>
        <time>2020-09-17T11:30:12.194Z</time>
      </trkpt>
      <trkpt lat="50.51209" lon="3.41251">
        <ele>23.794635</ele>
        <time>2020-09-17T11:30:16.576Z</time>
      </trkpt>
      <trkpt lat="50.5122" lon="3.41303">
        <ele>23.49882</ele>
        <time>2020-09-17T11:30:20.845Z</time>
      </trkpt>
      <trkpt lat="50.51227" lon="3.4133">
        <ele>23.346713</ele>
        <time>2020-09-17T11:30:23.072Z</time>
      </trkpt>
      <trkpt lat="50.51187" lon="3.41373">
        <ele>22.948594</ele>
        <time>2020-09-17T11:30:31.559Z</time>
      </trkpt>
      <trkpt lat="50.51184" lon="3.41379">
        <ele>22.907203</ele>
        <time>2020-09-17T11:30:32.444Z</time>
      </trkpt>
      <trkpt lat="50.51159" lon="3.41429">
        <ele>22.574849</ele>
        <time>2020-09-17T11:30:39.565Z</time>
      </trkpt>
      <trkpt lat="50.51046" lon="3.41624">
        <ele>21.457674</ele>
        <time>2020-09-17T11:31:09.859Z</time>
      </trkpt>
      <trkpt lat="50.50896" lon="3.41734">
        <ele>20.724196</ele>
        <time>2020-09-17T11:31:41.158Z</time>
      </trkpt>
      <trkpt lat="50.50891" lon="3.41737">
        <ele>20.70629</ele>
        <time>2020-09-17T11:31:42.202Z</time>
      </trkpt>
      <trkpt lat="50.50887" lon="3.41766">
        <ele>20.642924</ele>
        <time>2020-09-17T11:31:45.928Z</time>
      </trkpt>
      <trkpt lat="50.50888" lon="3.41777">
        <ele>20.61871</ele>
        <time>2020-09-17T11:31:47.422Z</time>
      </trkpt>
      <trkpt lat="50.50896" lon="3.41809">
        <ele>20.543606</ele>
        <time>2020-09-17T11:31:51.595Z</time>
      </trkpt>
      <trkpt lat="50.50913" lon="3.41846">
        <ele>20.446169</ele>
        <time>2020-09-17T11:31:57.029Z</time>
      </trkpt>
      <trkpt lat="50.50925" lon="3.4187">
        <ele>20.391394</ele>
        <time>2020-09-17T11:32:00.740Z</time>
      </trkpt>
      <trkpt lat="50.50938" lon="3.41897">
        <ele>20.351173</ele>
        <time>2020-09-17T11:32:04.770Z</time>
      </trkpt>
      <trkpt lat="50.50962" lon="3.41947">
        <ele>20.276915</ele>
        <time>2020-09-17T11:32:12.312Z</time>
      </trkpt>
      <trkpt lat="50.50969" lon="3.4196">
        <ele>20.256909</ele>
        <time>2020-09-17T11:32:14.403Z</time>
      </trkpt>
      <trkpt lat="50.50977" lon="3.41975">
        <ele>20.233848</ele>
        <time>2020-09-17T11:32:16.730Z</time>
      </trkpt>
      <trkpt lat="50.50984" lon="3.4199">
        <ele>20.211051</ele>
        <time>2020-09-17T11:32:19.124Z</time>
      </trkpt>
      <trkpt lat="50.50992" lon="3.4201">
        <ele>20.183576</ele>
        <time>2020-09-17T11:32:22.003Z</time>
      </trkpt>
      <trkpt lat="50.51005" lon="3.42053">
        <ele>20.126467</ele>
        <time>2020-09-17T11:32:28.359Z</time>
      </trkpt>
      <trkpt lat="50.51014" lon="3.42107">
        <ele>20.073159</ele>
        <time>2020-09-17T11:32:35.734Z</time>
      </trkpt>
      <trkpt lat="50.51015" lon="3.42178">
        <ele>20.131273</ele>
        <time>2020-09-17T11:32:44.774Z</time>
      </trkpt>
      <trkpt lat="50.5101" lon="3.42222">
        <ele>20.167345</ele>
        <time>2020-09-17T11:32:50.362Z</time>
      </trkpt>
      <trkpt lat="50.51005" lon="3.4225">
        <ele>20.191264</ele>
        <time>2020-09-17T11:32:54.378Z</time>
      </trkpt>
      <trkpt lat="50.51003" lon="3.42257">
        <ele>20.197626</ele>
        <time>2020-09-17T11:32:55.575Z</time>
      </trkpt>
      <trkpt lat="50.50991" lon="3.42296">
        <ele>20.232964</ele>
        <time>2020-09-17T11:33:01.266Z</time>
      </trkpt>
      <trkpt lat="50.50987" lon="3.42321">
        <ele>20.253768</ele>
        <time>2020-09-17T11:33:04.876Z</time>
      </trkpt>
      <trkpt lat="50.50984" lon="3.42324">
        <ele>20.258415</ele>
        <time>2020-09-17T11:33:05.306Z</time>
      </trkpt>
      <trkpt lat="50.50931" lon="3.42378">
        <ele>20.244862</ele>
        <time>2020-09-17T11:33:15.494Z</time>
      </trkpt>
      <trkpt lat="50.50893" lon="3.42426">
        <ele>20.160046</ele>
        <time>2020-09-17T11:33:22.840Z</time>
      </trkpt>
      <trkpt lat="50.50684" lon="3.42741">
        <ele>19.109142</ele>
        <time>2020-09-17T11:34:01.765Z</time>
      </trkpt>
      <trkpt lat="50.50652" lon="3.4279">
        <ele>18.873844</ele>
        <time>2020-09-17T11:34:07.413Z</time>
      </trkpt>
      <trkpt lat="50.50633" lon="3.42818">
        <ele>18.736927</ele>
        <time>2020-09-17T11:34:10.606Z</time>
      </trkpt>
      <trkpt lat="50.50538" lon="3.42968">
        <ele>18.354491</ele>
        <time>2020-09-17T11:34:28.658Z</time>
      </trkpt>
      <trkpt lat="50.50529" lon="3.42984">
        <ele>18.406966</ele>
        <time>2020-09-17T11:34:30.569Z</time>
      </trkpt>
      <trkpt lat="50.50526" lon="3.42988">
        <ele>18.421684</ele>
        <time>2020-09-17T11:34:31.182Z</time>
      </trkpt>
      <trkpt lat="50.50524" lon="3.42992">
        <ele>18.43467</ele>
        <time>2020-09-17T11:34:31.725Z</time>
      </trkpt>
      <trkpt lat="50.50517" lon="3.43003">
        <ele>18.473053</ele>
        <time>2020-09-17T11:34:33.640Z</time>
      </trkpt>
      <trkpt lat="50.50469" lon="3.43071">
        <ele>18.719032</ele>
        <time>2020-09-17T11:34:44.688Z</time>
      </trkpt>
      <trkpt lat="50.50408" lon="3.43153">
        <ele>19.111991</ele>
        <time>2020-09-17T11:34:59.727Z</time>
      </trkpt>
      <trkpt lat="50.50394" lon="3.43172">
        <ele>19.231557</ele>
        <time>2020-09-17T11:35:02.951Z</time>
      </trkpt>
      <trkpt lat="50.50386" lon="3.43182">
        <ele>19.30134</ele>
        <time>2020-09-17T11:35:04.947Z</time>
      </trkpt>
      <trkpt lat="50.50382" lon="3.43186">
        <ele>19.333182</ele>
        <time>2020-09-17T11:35:05.885Z</time>
      </trkpt>
      <trkpt lat="50.50371" lon="3.43197">
        <ele>19.420448</ele>
        <time>2020-09-17T11:35:08.164Z</time>
      </trkpt>
      <trkpt lat="50.50362" lon="3.43201">
        <ele>19.480782</ele>
        <time>2020-09-17T11:35:09.793Z</time>
      </trkpt>
      <trkpt lat="50.50361" lon="3.4322">
        <ele>19.560921</ele>
        <time>2020-09-17T11:35:12.094Z</time>
      </trkpt>
      <trkpt lat="50.50312" lon="3.43314">
        <ele>20.071594</ele>
        <time>2020-09-17T11:35:25.392Z</time>
      </trkpt>
      <trkpt lat="50.50189" lon="3.43492">
        <ele>20.169171</ele>
        <time>2020-09-17T11:35:49.951Z</time>
      </trkpt>
      <trkpt lat="50.50185" lon="3.43497">
        <ele>20.171851</ele>
        <time>2020-09-17T11:35:50.728Z</time>
      </trkpt>
      <trkpt lat="50.50098" lon="3.43629">
        <ele>20.13315</ele>
        <time>2020-09-17T11:36:08.464Z</time>
      </trkpt>
      <trkpt lat="50.50074" lon="3.43662">
        <ele>20.120611</ele>
        <time>2020-09-17T11:36:13.342Z</time>
      </trkpt>
      <trkpt lat="50.50051" lon="3.43694">
        <ele>20.108561</ele>
        <time>2020-09-17T11:36:17.716Z</time>
      </trkpt>
      <trkpt lat="50.50021" lon="3.43737">
        <ele>20.086158</ele>
        <time>2020-09-17T11:36:23.538Z</time>
      </trkpt>
      <trkpt lat="50.49968" lon="3.4381">
        <ele>20.045463</ele>
        <time>2020-09-17T11:36:33.867Z</time>
      </trkpt>
      <trkpt lat="50.49959" lon="3.43822">
        <ele>20.038537</ele>
        <time>2020-09-17T11:36:35.491Z</time>
      </trkpt>
      <trkpt lat="50.49932" lon="3.43869">
        <ele>20.015353</ele>
        <time>2020-09-17T11:36:41.399Z</time>
      </trkpt>
      <trkpt lat="50.49908" lon="3.43909">
        <ele>20.03147</ele>
        <time>2020-09-17T11:36:46.674Z</time>
      </trkpt>
      <trkpt lat="50.49875" lon="3.43953">
        <ele>20.143495</ele>
        <time>2020-09-17T11:36:53.195Z</time>
      </trkpt>
      <trkpt lat="50.4985" lon="3.43976">
        <ele>20.219077</ele>
        <time>2020-09-17T11:36:57.475Z</time>
      </trkpt>
      <trkpt lat="50.49781" lon="3.4402">
        <ele>20.414314</ele>
        <time>2020-09-17T11:37:09.669Z</time>
      </trkpt>
      <trkpt lat="50.49763" lon="3.44038">
        <ele>20.469807</ele>
        <time>2020-09-17T11:37:13.217Z</time>
      </trkpt>
      <trkpt lat="50.49744" lon="3.44059">
        <ele>20.501902</ele>
        <time>2020-09-17T11:37:17.369Z</time>
      </trkpt>
      <trkpt lat="50.49705" lon="3.44106">
        <ele>20.566122</ele>
        <time>2020-09-17T11:37:26.154Z</time>
      </trkpt>
      <trkpt lat="50.49685" lon="3.44131">
        <ele>20.599771</ele>
        <time>2020-09-17T11:37:30.749Z</time>
      </trkpt>
      <trkpt lat="50.49648" lon="3.44196">
        <ele>20.672194</ele>
        <time>2020-09-17T11:37:38.854Z</time>
      </trkpt>
      <trkpt lat="50.49645" lon="3.44201">
        <ele>20.678208</ele>
        <time>2020-09-17T11:37:39.643Z</time>
      </trkpt>
      <trkpt lat="50.49629" lon="3.44231">
        <ele>20.675931</ele>
        <time>2020-09-17T11:37:42.620Z</time>
      </trkpt>
      <trkpt lat="50.49602" lon="3.44292">
        <ele>19.990195</ele>
        <time>2020-09-17T11:37:48.240Z</time>
      </trkpt>
      <trkpt lat="50.496" lon="3.44307">
        <ele>19.847292</ele>
        <time>2020-09-17T11:37:49.543Z</time>
      </trkpt>
      <trkpt lat="50.49601" lon="3.44316">
        <ele>19.763125</ele>
        <time>2020-09-17T11:37:50.235Z</time>
      </trkpt>
      <trkpt lat="50.49606" lon="3.44327">
        <ele>19.642413</ele>
        <time>2020-09-17T11:37:51.067Z</time>
      </trkpt>
      <trkpt lat="50.49657" lon="3.44381">
        <ele>18.752152</ele>
        <time>2020-09-17T11:37:58.219Z</time>
      </trkpt>
      <trkpt lat="50.49663" lon="3.44393">
        <ele>18.606996</ele>
        <time>2020-09-17T11:37:59.222Z</time>
      </trkpt>
      <trkpt lat="50.49669" lon="3.44396">
        <ele>18.519566</ele>
        <time>2020-09-17T11:37:59.948Z</time>
      </trkpt>
      <trkpt lat="50.49672" lon="3.44401">
        <ele>18.453706</ele>
        <time>2020-09-17T11:38:00.505Z</time>
      </trkpt>
      <trkpt lat="50.49674" lon="3.44405">
        <ele>18.406977</ele>
        <time>2020-09-17T11:38:00.833Z</time>
      </trkpt>
      <trkpt lat="50.49687" lon="3.44433">
        <ele>18.085283</ele>
        <time>2020-09-17T11:38:03.215Z</time>
      </trkpt>
      <trkpt lat="50.49735" lon="3.44569">
        <ele>16.762305</ele>
        <time>2020-09-17T11:38:14.331Z</time>
      </trkpt>
      <trkpt lat="50.49754" lon="3.44626">
        <ele>16.214953</ele>
        <time>2020-09-17T11:38:19.204Z</time>
      </trkpt>
      <trkpt lat="50.49776" lon="3.4469">
        <ele>15.690294</ele>
        <time>2020-09-17T11:38:25.367Z</time>
      </trkpt>
      <trkpt lat="50.49798" lon="3.44759">
        <ele>15.763526</ele>
        <time>2020-09-17T11:38:32.140Z</time>
      </trkpt>
      <trkpt lat="50.49799" lon="3.44762">
        <ele>15.766561</ele>
        <time>2020-09-17T11:38:32.530Z</time>
      </trkpt>
      <trkpt lat="50.49844" lon="3.44889">
        <ele>15.903517</ele>
        <time>2020-09-17T11:38:46.979Z</time>
      </trkpt>
      <trkpt lat="50.49851" lon="3.44909">
        <ele>15.925897</ele>
        <time>2020-09-17T11:38:49.724Z</time>
      </trkpt>
      <trkpt lat="50.49853" lon="3.44914">
        <ele>15.931336</ele>
        <time>2020-09-17T11:38:50.351Z</time>
      </trkpt>
      <trkpt lat="50.49864" lon="3.44939">
        <ele>16.009845</ele>
        <time>2020-09-17T11:38:53.887Z</time>
      </trkpt>
      <trkpt lat="50.49867" lon="3.44946">
        <ele>16.051113</ele>
        <time>2020-09-17T11:38:54.912Z</time>
      </trkpt>
      <trkpt lat="50.49874" lon="3.44964">
        <ele>16.156146</ele>
        <time>2020-09-17T11:38:57.591Z</time>
      </trkpt>
      <trkpt lat="50.49935" lon="3.45106">
        <ele>16.999958</ele>
        <time>2020-09-17T11:39:18.324Z</time>
      </trkpt>
      <trkpt lat="50.49943" lon="3.45125">
        <ele>17.115863</ele>
        <time>2020-09-17T11:39:20.868Z</time>
      </trkpt>
      <trkpt lat="50.49958" lon="3.45159">
        <ele>17.31814</ele>
        <time>2020-09-17T11:39:24.988Z</time>
      </trkpt>
      <trkpt lat="50.49974" lon="3.45177">
        <ele>17.350161</ele>
        <time>2020-09-17T11:39:28.142Z</time>
      </trkpt>
      <trkpt lat="50.49999" lon="3.45188">
        <ele>17.358811</ele>
        <time>2020-09-17T11:39:31.783Z</time>
      </trkpt>
      <trkpt lat="50.50005" lon="3.45189">
        <ele>17.361007</ele>
        <time>2020-09-17T11:39:32.820Z</time>
      </trkpt>
      <trkpt lat="50.50044" lon="3.45199">
        <ele>17.374675</ele>
        <time>2020-09-17T11:39:38.975Z</time>
      </trkpt>
      <trkpt lat="50.50051" lon="3.45202">
        <ele>17.377099</ele>
        <time>2020-09-17T11:39:40.029Z</time>
      </trkpt>
      <trkpt lat="50.50052" lon="3.45203">
        <ele>17.377672</ele>
        <time>2020-09-17T11:39:40.283Z</time>
      </trkpt>
      <trkpt lat="50.50084" lon="3.45223">
        <ele>17.389608</ele>
        <time>2020-09-17T11:39:45.544Z</time>
      </trkpt>
      <trkpt lat="50.50092" lon="3.45227">
        <ele>17.392532</ele>
        <time>2020-09-17T11:39:46.758Z</time>
      </trkpt>
      <trkpt lat="50.5013" lon="3.45249">
        <ele>17.406382</ele>
        <time>2020-09-17T11:39:52.245Z</time>
      </trkpt>
      <trkpt lat="50.50142" lon="3.45258">
        <ele>17.419335</ele>
        <time>2020-09-17T11:39:54.135Z</time>
      </trkpt>
      <trkpt lat="50.50193" lon="3.45294">
        <ele>17.47538</ele>
        <time>2020-09-17T11:40:01.689Z</time>
      </trkpt>
      <trkpt lat="50.50229" lon="3.45322">
        <ele>17.514804</ele>
        <time>2020-09-17T11:40:07.410Z</time>
      </trkpt>
      <trkpt lat="50.5031" lon="3.45386">
        <ele>17.676146</ele>
        <time>2020-09-17T11:40:23.557Z</time>
      </trkpt>
      <trkpt lat="50.50341" lon="3.45413">
        <ele>17.839364</ele>
        <time>2020-09-17T11:40:29.360Z</time>
      </trkpt>
      <trkpt lat="50.50355" lon="3.45425">
        <ele>17.91306</ele>
        <time>2020-09-17T11:40:31.772Z</time>
      </trkpt>
      <trkpt lat="50.50407" lon="3.45459">
        <ele>18.171058</ele>
        <time>2020-09-17T11:40:40.670Z</time>
      </trkpt>
      <trkpt lat="50.50407" lon="3.45459">
        <ele>18.171058</ele>
        <time>2020-09-17T11:40:40.673Z</time>
      </trkpt>
      <trkpt lat="50.50388" lon="3.45566">
        <ele>18.503206</ele>
        <time>2020-09-17T11:40:56.610Z</time>
      </trkpt>
      <trkpt lat="50.50388" lon="3.45566">
        <ele>18.503206</ele>
        <time>2020-09-17T11:40:56.612Z</time>
      </trkpt>
      <trkpt lat="50.50381" lon="3.45609">
        <ele>18.646499</ele>
        <time>2020-09-17T11:41:03.278Z</time>
      </trkpt>
      <trkpt lat="50.50383" lon="3.45617">
        <ele>18.671652</ele>
        <time>2020-09-17T11:41:04.421Z</time>
      </trkpt>
      <trkpt lat="50.50416" lon="3.45626">
        <ele>18.842337</ele>
        <time>2020-09-17T11:41:11.973Z</time>
      </trkpt>
      <trkpt lat="50.50437" lon="3.45631">
        <ele>18.948065</ele>
        <time>2020-09-17T11:41:16.259Z</time>
      </trkpt>
      <trkpt lat="50.50436" lon="3.45642">
        <ele>18.983411</ele>
        <time>2020-09-17T11:41:17.617Z</time>
      </trkpt>
      <trkpt lat="50.50433" lon="3.4572">
        <ele>19.231987</ele>
        <time>2020-09-17T11:41:25.743Z</time>
      </trkpt>
      <trkpt lat="50.50424" lon="3.45772">
        <ele>19.405448</ele>
        <time>2020-09-17T11:41:31.707Z</time>
      </trkpt>
      <trkpt lat="50.5041" lon="3.45851">
        <ele>19.666834</ele>
        <time>2020-09-17T11:41:40.692Z</time>
      </trkpt>
      <trkpt lat="50.50361" lon="3.46074">
        <ele>20.358839</ele>
        <time>2020-09-17T11:42:05.953Z</time>
      </trkpt>
      <trkpt lat="50.50345" lon="3.46155">
        <ele>20.544789</ele>
        <time>2020-09-17T11:42:14.806Z</time>
      </trkpt>
      <trkpt lat="50.50335" lon="3.46236">
        <ele>20.725571</ele>
        <time>2020-09-17T11:42:23.021Z</time>
      </trkpt>
      <trkpt lat="50.50325" lon="3.46304">
        <ele>20.843513</ele>
        <time>2020-09-17T11:42:30.072Z</time>
      </trkpt>
      <trkpt lat="50.50317" lon="3.46374">
        <ele>20.843513</ele>
        <time>2020-09-17T11:42:37.118Z</time>
      </trkpt>
      <trkpt lat="50.50313" lon="3.46411">
        <ele>20.843513</ele>
        <time>2020-09-17T11:42:40.607Z</time>
      </trkpt>
      <trkpt lat="50.50316" lon="3.46422">
        <ele>20.843513</ele>
        <time>2020-09-17T11:42:41.853Z</time>
      </trkpt>
      <trkpt lat="50.5034" lon="3.46438">
        <ele>20.843513</ele>
        <time>2020-09-17T11:42:45.674Z</time>
      </trkpt>
      <trkpt lat="50.50361" lon="3.46454">
        <ele>20.843513</ele>
        <time>2020-09-17T11:42:49.064Z</time>
      </trkpt>
      <trkpt lat="50.50361" lon="3.46454">
        <ele>20.843513</ele>
        <time>2020-09-17T11:42:49.127Z</time>
      </trkpt>
    </trkseg>
  </trk>
</gpx>